
Distance (Route):
Temperature : -10.2°C
Humidity : 26.2%
Pressure : 621.5hPa| Receiver | Frames | First received | Last received |
|---|---|---|---|
| SP4MAZ | 295 | 2026-09-05 23:24:46 | 2026-09-06 01:22:06 |
| SP3WXH-11 | 135 | 2026-09-05 23:53:07 | 2026-09-06 01:07:06 |
| KRY50SP | 59 | 2026-09-06 01:01:46 | 2026-09-06 01:08:43 |
| SONDE2-11 | 14 | 2026-09-06 00:41:08 | 2026-09-06 00:51:29 |
| SP8MDH-15 | 10 | 2026-09-06 01:10:56 | 2026-09-06 01:19:15 |
| SP3BTT-10 | 8 | 2026-09-06 00:38:52 | 2026-09-06 00:45:23 |
| Receiver | Date | Latitude | Longitude | Direction | Speed | Altitude | Climb | Temperature | Humidity | Pressure | Voltage | Killtimer | Uptime | BKT | XDATA |
|---|---|---|---|---|---|---|---|---|---|---|---|---|---|---|---|
| SP4MAZ | 2026-09-06 01:22:06 | 51.88555 | 22.57762 | 129° | 68km/h | 3970m | -8.9m/s | -10.2°C | 26.2% | 621.5hPa | 0V | 00:00:00 | 00:00:00 | 00:00:00 | |
| SP4MAZ | 2026-09-06 01:21:45 | 51.88784 | 22.57293 | 128° | 69km/h | 4154m | -9.0m/s | -11.7°C | 32.1% | 607.0hPa | 0V | 00:00:00 | 00:00:00 | 00:00:00 | |
| SP4MAZ | 2026-09-06 01:20:53 | 51.89280 | 22.56100 | 121° | 68km/h | 4594m | -9.2m/s | -15.2°C | 34.2% | 572.6hPa | 0V | 00:00:00 | 00:00:00 | 00:00:00 | |
| SP4MAZ | 2026-09-06 01:20:32 | 51.89473 | 22.55589 | 123° | 69km/h | 4773m | -9.9m/s | -16.6°C | 41.6% | 559.2hPa | 0V | 00:00:00 | 00:00:00 | 00:00:00 | |
| SP4MAZ | 2026-09-06 01:20:11 | 51.89676 | 22.55086 | 124° | 71km/h | 4953m | -6.9m/s | -18.1°C | 63.4% | 545.8hPa | 0V | 00:00:00 | 00:00:00 | 00:00:00 | |
| SP4MAZ | 2026-09-06 01:19:50 | 51.89877 | 22.54560 | 122° | 71km/h | 5129m | -8.4m/s | -19.5°C | 60.7% | 533.1hPa | 0V | 00:00:00 | 00:00:00 | 00:00:00 | |
| SP4MAZ | 2026-09-06 01:19:24 | 51.90135 | 22.53896 | 122° | 75km/h | 5342m | -8.1m/s | -21.3°C | 63.0% | 517.8hPa | 0V | 00:00:00 | 00:00:00 | 00:00:00 | |
| SP8MDH-15 | 2026-09-06 01:19:15 | 51.90234 | 22.53641 | 124° | 73km/h | 5424m | -8.3m/s | -22.1°C | 65.1% | 512.2hPa | 0V | 00:00:00 | 00:00:00 | 00:00:00 | |
| SP4MAZ | 2026-09-06 01:19:04 | 51.90330 | 22.53387 | 122° | 71km/h | 5502m | -7.6m/s | -22.6°C | 64.9% | 506.6hPa | 0V | 00:00:00 | 00:00:00 | 00:00:00 | |
| SP4MAZ | 2026-09-06 01:18:43 | 51.90511 | 22.52891 | 121° | 64km/h | 5668m | -9.0m/s | -23.6°C | 38.6% | 495.2hPa | 0V | 00:00:00 | 00:00:00 | 00:00:00 | |
| SP4MAZ | 2026-09-06 01:18:23 | 51.90670 | 22.52438 | 121° | 66km/h | 5832m | -8.8m/s | -25.0°C | 38.2% | 484.2hPa | 0V | 00:00:00 | 00:00:00 | 00:00:00 | |
| SP4MAZ | 2026-09-06 01:18:02 | 51.90829 | 22.51953 | 118° | 62km/h | 6013m | -8.4m/s | -26.7°C | 70.8% | 472.4hPa | 0V | 00:00:00 | 00:00:00 | 00:00:00 | |
| SP4MAZ | 2026-09-06 01:17:41 | 51.90985 | 22.51478 | 120° | 66km/h | 6202m | -8.2m/s | -28.3°C | 76.5% | 460.2hPa | 0V | 00:00:00 | 00:00:00 | 00:00:00 | |
| SP4MAZ | 2026-09-06 01:17:20 | 51.91173 | 22.50971 | 123° | 71km/h | 6380m | -9.2m/s | -29.4°C | 46.0% | 448.6hPa | 0V | 00:00:00 | 00:00:00 | 00:00:00 | |
| SP4MAZ | 2026-09-06 01:16:59 | 51.91387 | 22.50432 | 123° | 73km/h | 6564m | -8.9m/s | -30.9°C | 26.5% | 437.1hPa | 0V | 00:00:00 | 00:00:00 | 00:00:00 | |
| SP8MDH-15 | 2026-09-06 01:16:52 | 51.91465 | 22.50223 | 119° | 71km/h | 6630m | -9.8m/s | -31.4°C | 24.3% | 432.9hPa | 0V | 00:00:00 | 00:00:00 | 00:00:00 | |
| SP4MAZ | 2026-09-06 01:16:39 | 51.91576 | 22.49907 | 119° | 73km/h | 6740m | -9.8m/s | -32.4°C | 30.8% | 426.3hPa | 0V | 00:00:00 | 00:00:00 | 00:00:00 | |
| SP4MAZ | 2026-09-06 01:16:18 | 51.91753 | 22.49344 | 115° | 75km/h | 6924m | -9.6m/s | -33.7°C | 33.8% | 415.2hPa | 0V | 00:00:00 | 00:00:00 | 00:00:00 | |
| SP8MDH-15 | 2026-09-06 01:15:59 | 51.91908 | 22.48821 | 118° | 73km/h | 7096m | -10.1m/s | -34.6°C | 20.8% | 405.2hPa | 0V | 00:00:00 | 00:00:00 | 00:00:00 | |
| SP4MAZ | 2026-09-06 01:15:57 | 51.91925 | 22.48768 | 120° | 73km/h | 7116m | -10.2m/s | -34.8°C | 21.1% | 404.1hPa | 0V | 00:00:00 | 00:00:00 | 00:00:00 | |
| SP4MAZ | 2026-09-06 01:15:37 | 51.92117 | 22.48223 | 119° | 78km/h | 7311m | -11.0m/s | -36.1°C | 24.4% | 393.6hPa | 0V | 00:00:00 | 00:00:00 | 00:00:00 | |
| SP8MDH-15 | 2026-09-06 01:15:36 | 51.92126 | 22.48196 | 122° | 75km/h | 7323m | -10.7m/s | -36.2°C | 0% | 0hPa | 0V | 08:01:00 | 00:00:00 | 00:00:00 | |
| SP8MDH-15 | 2026-09-06 01:15:15 | 51.92330 | 22.47622 | 119° | 75km/h | 7519m | -10.0m/s | -38.0°C | 0% | 0hPa | 0V | 08:01:00 | 00:00:00 | 00:00:00 | |
| SP4MAZ | 2026-09-06 01:14:55 | 51.92533 | 22.47036 | 119° | 80km/h | 7712m | -10.2m/s | -39.5°C | 34.9% | 371.1hPa | 0V | 00:00:00 | 00:00:00 | 00:00:00 | |
| SP8MDH-15 | 2026-09-06 01:14:54 | 51.92533 | 22.47036 | 119° | 80km/h | 7712m | -10.2m/s | -39.5°C | 0% | 0hPa | 0V | 00:00:00 | 00:00:00 | 00:00:00 | |
| SP4MAZ | 2026-09-06 01:14:34 | 51.92719 | 22.46453 | 116° | 78km/h | 7900m | -10.1m/s | -41.0°C | 36.1% | 361.0hPa | 0V | 00:00:00 | 00:00:00 | 00:00:00 | |
| SP8MDH-15 | 2026-09-06 01:14:33 | 51.92728 | 22.46423 | 118° | 84km/h | 7909m | -9.8m/s | -41.1°C | 0% | 0hPa | 0V | 00:00:00 | 00:00:00 | 00:00:00 | |
| SP4MAZ | 2026-09-06 01:14:13 | 51.92923 | 22.45814 | 119° | 86km/h | 8095m | -9.6m/s | -42.0°C | 25.4% | 350.6hPa | 0V | 00:00:00 | 00:00:00 | 00:00:00 | |
| SP4MAZ | 2026-09-06 01:13:53 | 51.93125 | 22.45168 | 115° | 91km/h | 8282m | -9.4m/s | -43.3°C | 24.5% | 341.1hPa | 0V | 00:00:00 | 00:00:00 | 00:00:00 | |
| SP4MAZ | 2026-09-06 01:13:33 | 51.93327 | 22.44455 | 118° | 99km/h | 8474m | -10.5m/s | -43.4°C | 17.9% | 331.5hPa | 0V | 00:00:00 | 00:00:00 | 00:00:00 | |
| SP8MDH-15 | 2026-09-06 01:13:28 | 51.93384 | 22.44277 | 119° | 97km/h | 8523m | -9.5m/s | -43.5°C | 0% | 0hPa | 0V | 00:00:00 | 00:00:00 | 00:00:00 | |
| SP4MAZ | 2026-09-06 01:13:12 | 51.93582 | 22.43694 | 119° | 102km/h | 8675m | -10.4m/s | -43.9°C | 15.9% | 321.8hPa | 0V | 08:04:00 | 00:00:00 | 00:00:00 | |
| SP4MAZ | 2026-09-06 01:12:52 | 51.93837 | 22.42945 | 120° | 108km/h | 8871m | -10.7m/s | -44.5°C | 13.2% | 312.5hPa | 0V | 08:04:00 | 00:00:00 | 00:00:00 | |
| SP8MDH-15 | 2026-09-06 01:12:34 | 51.94097 | 22.42209 | 120° | 108km/h | 9067m | -11.6m/s | 0°C | 0% | 0hPa | 0V | 00:00:00 | 00:00:00 | 00:00:00 | |
| SP4MAZ | 2026-09-06 01:12:30 | 51.94138 | 22.42090 | 122° | 111km/h | 9099m | -10.8m/s | -44.3°C | 9.0% | 302.5hPa | 0V | 08:04:00 | 00:00:00 | 00:00:00 | |
| SP4MAZ | 2026-09-06 01:12:09 | 51.94438 | 22.41245 | 122° | 117km/h | 9300m | -8.9m/s | -43.6°C | 8.4% | 293.1hPa | 0V | 00:00:00 | 00:00:00 | 00:00:00 | |
| SP4MAZ | 2026-09-06 01:11:47 | 51.94759 | 22.40350 | 123° | 106km/h | 9536m | -12.9m/s | -44.1°C | 8.9% | 283.6hPa | 0V | 00:00:00 | 00:00:00 | 00:00:00 | |
| SP4MAZ | 2026-09-06 01:11:27 | 51.95035 | 22.39571 | 123° | 110km/h | 9756m | -5.5m/s | -45.2°C | 8.9% | 275.4hPa | 0V | 00:00:00 | 00:00:00 | 00:00:00 | |
| SP4MAZ | 2026-09-06 01:11:03 | 51.95387 | 22.38634 | 121° | 111km/h | 9977m | -10.2m/s | -45.7°C | 6.2% | 265.1hPa | 0V | 00:00:00 | 00:00:00 | 00:00:00 | |
| SP8MDH-15 | 2026-09-06 01:10:56 | 51.95493 | 22.38361 | 124° | 110km/h | 10050m | -9.7m/s | 0°C | 0% | 0hPa | 0V | 00:00:00 | 00:00:00 | 00:00:00 | |
| SP4MAZ | 2026-09-06 01:10:43 | 51.95700 | 22.37853 | 127° | 113km/h | 10174m | -10.7m/s | -44.9°C | 4.4% | 257.5hPa | 0V | 00:00:00 | 00:00:00 | 00:00:00 | |
| SP4MAZ | 2026-09-06 01:10:21 | 51.96055 | 22.36990 | 123° | 119km/h | 10404m | -10.4m/s | -45.2°C | 3.6% | 248.6hPa | 0V | 00:00:00 | 00:00:00 | 00:00:00 | |
| SP4MAZ | 2026-09-06 01:10:00 | 51.96381 | 22.36165 | 125° | 106km/h | 10625m | -10.0m/s | -45.7°C | 2.9% | 240.7hPa | 0V | 00:00:00 | 00:00:00 | 00:00:00 | |
| SP4MAZ | 2026-09-06 01:09:40 | 51.96680 | 22.35428 | 122° | 113km/h | 10832m | -12.2m/s | -44.7°C | 2.2% | 233.6hPa | 0V | 00:00:00 | 00:00:00 | 00:00:00 | |
| SP4MAZ | 2026-09-06 01:09:18 | 51.97013 | 22.34546 | 122° | 119km/h | 11059m | -10.8m/s | -44.7°C | 1.7% | 225.5hPa | 0V | 00:00:00 | 00:00:00 | 00:00:00 | |
| SP4MAZ | 2026-09-06 01:08:57 | 51.97352 | 22.33697 | 123° | 119km/h | 11289m | -11.6m/s | -44.3°C | 1.4% | 217.8hPa | 0V | 08:08:00 | 00:00:00 | 00:00:00 | |
| KRY50SP | 2026-09-06 01:08:43 | 51.97572 | 22.33127 | 123° | 117km/h | 11444m | -11.6m/s | -44.6°C | 1.5% | 212.9hPa | 0V | 00:00:00 | 00:00:00 | 00:00:00 | |
| SP4MAZ | 2026-09-06 01:08:36 | 51.97681 | 22.32852 | 124° | 117km/h | 11517m | -11.5m/s | -45.0°C | 1.4% | 210.6hPa | 0V | 08:08:00 | 00:00:00 | 00:00:00 | |
| KRY50SP | 2026-09-06 01:08:30 | 51.97774 | 22.32612 | 122° | 115km/h | 11583m | -11.7m/s | -44.8°C | 1.3% | 208.5hPa | 0V | 00:00:00 | 00:00:00 | 00:00:00 | |
| SP4MAZ | 2026-09-06 01:08:16 | 51.97977 | 22.32034 | 121° | 119km/h | 11745m | -10.6m/s | -44.9°C | 1.2% | 203.6hPa | 0V | 08:08:00 | 00:00:00 | 00:00:00 | |
| KRY50SP | 2026-09-06 01:08:14 | 51.98006 | 22.31948 | 121° | 117km/h | 11764m | -11.1m/s | -44.9°C | 1.2% | 202.9hPa | 0V | 08:09:00 | 00:00:00 | 00:00:00 | |
| KRY50SP | 2026-09-06 01:08:03 | 51.98177 | 22.31490 | 122° | 120km/h | 11880m | -11.4m/s | -45.3°C | 1.1% | 199.3hPa | 0V | 08:09:00 | 00:00:00 | 00:00:00 | |
| KRY50SP | 2026-09-06 01:07:58 | 51.98256 | 22.31282 | 122° | 120km/h | 11939m | -13.3m/s | -45.4°C | 1.1% | 197.7hPa | 0V | 08:09:00 | 00:00:00 | 00:00:00 | |
| SP4MAZ | 2026-09-06 01:07:56 | 51.98288 | 22.31199 | 123° | 119km/h | 11964m | -12.7m/s | -45.5°C | 1.1% | 196.9hPa | 0V | 00:00:00 | 00:00:00 | 00:00:00 | |
| KRY50SP | 2026-09-06 01:07:50 | 51.98380 | 22.30951 | 121° | 119km/h | 12035m | -12.5m/s | -45.9°C | 1.2% | 194.9hPa | 0V | 08:09:00 | 00:00:00 | 00:00:00 | |
| KRY50SP | 2026-09-06 01:07:40 | 51.98538 | 22.30542 | 123° | 119km/h | 12146m | -12.2m/s | -46.1°C | 1.2% | 191.6hPa | 0V | 08:09:00 | 00:00:00 | 00:00:00 | |
| KRY50SP | 2026-09-06 01:07:35 | 51.98614 | 22.30347 | 126° | 113km/h | 12199m | -10.4m/s | -46.0°C | 1.2% | 190.0hPa | 0V | 08:09:00 | 00:00:00 | 00:00:00 | |
| KRY50SP | 2026-09-06 01:07:28 | 51.98717 | 22.30081 | 122° | 110km/h | 12280m | -11.4m/s | -46.0°C | 1.2% | 187.8hPa | 0V | 08:09:00 | 00:00:00 | 00:00:00 | |
| KRY50SP | 2026-09-06 01:07:22 | 51.98801 | 22.29857 | 126° | 110km/h | 12347m | -12.1m/s | -46.2°C | 1.2% | 186.0hPa | 0V | 00:00:00 | 00:00:00 | 00:00:00 | |
| KRY50SP | 2026-09-06 01:07:11 | 51.98965 | 22.29448 | 124° | 104km/h | 12476m | -12.3m/s | -46.3°C | 1.2% | 182.6hPa | 0V | 00:00:00 | 00:00:00 | 00:00:00 | |
| SP3WXH-11 | 2026-09-06 01:07:06 | 51.99239 | 22.28711 | 121° | 108km/h | 12689m | -11.1m/s | -46.8°C | 1.2% | 176.5hPa | 0V | 00:00:00 | 00:00:00 | 00:00:00 | |
| KRY50SP | 2026-09-06 01:07:01 | 51.99099 | 22.29082 | 124° | 102km/h | 12576m | -12.7m/s | -46.8°C | 1.2% | 179.5hPa | 0V | 00:00:00 | 00:00:00 | 00:00:00 | |
| KRY50SP | 2026-09-06 01:06:51 | 51.99239 | 22.28712 | 122° | 108km/h | 12689m | -11.1m/s | -46.8°C | 1.2% | 176.5hPa | 0V | 00:00:00 | 00:00:00 | 00:00:00 | |
| SP4MAZ | 2026-09-06 01:06:41 | 51.99378 | 22.28341 | 123° | 108km/h | 12794m | -10.4m/s | -46.7°C | 1.1% | 173.6hPa | 0V | 00:00:00 | 00:00:00 | 00:00:00 | |
| KRY50SP | 2026-09-06 01:06:38 | 51.99420 | 22.28228 | 122° | 106km/h | 12827m | -11.0m/s | -46.7°C | 1.1% | 172.8hPa | 0V | 00:00:00 | 00:00:00 | 00:00:00 | |
| SP3WXH-11 | 2026-09-06 01:06:35 | 51.99488 | 22.28036 | 118° | 110km/h | 12882m | -10.9m/s | -46.8°C | 1.1% | 171.4hPa | 0V | 00:00:00 | 00:00:00 | 00:00:00 | |
| KRY50SP | 2026-09-06 01:06:29 | 51.99541 | 22.27884 | 120° | 104km/h | 12922m | -12.3m/s | -46.9°C | 1.1% | 170.3hPa | 0V | 08:10:00 | 00:00:00 | 00:00:00 | |
| SP4MAZ | 2026-09-06 01:06:20 | 51.99657 | 22.27554 | 120° | 104km/h | 13027m | -10.5m/s | -47.1°C | 1.1% | 167.8hPa | 0V | 00:00:00 | 00:00:00 | 00:00:00 | |
| KRY50SP | 2026-09-06 01:06:13 | 51.99743 | 22.27299 | 117° | 102km/h | 13102m | -11.3m/s | -47.1°C | 1.1% | 165.9hPa | 0V | 08:10:00 | 00:00:00 | 00:00:00 | |
| KRY50SP | 2026-09-06 01:06:08 | 51.99804 | 22.27115 | 118° | 99km/h | 13152m | -11.8m/s | -47.2°C | 1.1% | 164.5hPa | 0V | 08:10:00 | 00:00:00 | 00:00:00 | |
| SP3WXH-11 | 2026-09-06 01:06:03 | 51.99868 | 22.26902 | 116° | 97km/h | 13225m | -12.5m/s | -47.1°C | 1.1% | 162.9hPa | 0V | 00:00:00 | 00:00:00 | 00:00:00 | |
| KRY50SP | 2026-09-06 01:06:02 | 51.99868 | 22.26902 | 117° | 97km/h | 13225m | -12.5m/s | -47.1°C | 1.1% | 162.9hPa | 0V | 08:10:00 | 00:00:00 | 00:00:00 | |
| SP4MAZ | 2026-09-06 01:06:00 | 51.99888 | 22.26832 | 117° | 97km/h | 13247m | -11.2m/s | -46.9°C | 1.1% | 162.4hPa | 0V | 00:00:00 | 00:00:00 | 00:00:00 | |
| KRY50SP | 2026-09-06 01:05:57 | 51.99921 | 22.26727 | 118° | 95km/h | 13280m | -11.4m/s | -47.0°C | 1.1% | 161.6hPa | 0V | 08:10:00 | 00:00:00 | 00:00:00 | |
| KRY50SP | 2026-09-06 01:05:52 | 51.99976 | 22.26546 | 119° | 99km/h | 13335m | -11.8m/s | -46.9°C | 1.0% | 160.3hPa | 0V | 08:10:00 | 00:00:00 | 00:00:00 | |
| KRY50SP | 2026-09-06 01:05:46 | 52.00049 | 22.26327 | 117° | 86km/h | 13402m | -11.2m/s | -47.2°C | 1.1% | 158.6hPa | 0V | 08:10:00 | 00:00:00 | 00:00:00 | |
| KRY50SP | 2026-09-06 01:05:40 | 52.00126 | 22.26121 | 126° | 95km/h | 13470m | -11.8m/s | -46.9°C | 1.0% | 157.0hPa | 0V | 08:11:00 | 00:00:00 | 00:00:00 | |
| SP4MAZ | 2026-09-06 01:05:39 | 52.00140 | 22.26087 | 122° | 97km/h | 13481m | -11.6m/s | -46.9°C | 1.0% | 156.8hPa | 0V | 00:00:00 | 00:00:00 | 00:00:00 | |
| KRY50SP | 2026-09-06 01:05:34 | 52.00204 | 22.25922 | 122° | 95km/h | 13533m | -12.3m/s | -46.9°C | 1.0% | 155.5hPa | 0V | 08:11:00 | 00:00:00 | 00:00:00 | |
| SP3WXH-11 | 2026-09-06 01:05:32 | 52.00242 | 22.25824 | 120° | 93km/h | 13566m | -11.5m/s | -47.1°C | 1.0% | 154.6hPa | 0V | 00:00:00 | 00:00:00 | 00:00:00 | |
| KRY50SP | 2026-09-06 01:05:28 | 52.00276 | 22.25723 | 122° | 91km/h | 13604m | -13.6m/s | -47.3°C | 1.0% | 153.8hPa | 0V | 08:11:00 | 00:00:00 | 00:00:00 | |
| KRY50SP | 2026-09-06 01:05:22 | 52.00346 | 22.25531 | 123° | 93km/h | 13674m | -11.4m/s | -47.4°C | 1.1% | 152.1hPa | 0V | 08:11:00 | 00:00:00 | 00:00:00 | |
| KRY50SP | 2026-09-06 01:05:17 | 52.00407 | 22.25371 | 122° | 93km/h | 13735m | -11.1m/s | -47.7°C | 1.1% | 150.9hPa | 0V | 08:11:00 | 00:00:00 | 00:00:00 | |
| KRY50SP | 2026-09-06 01:05:11 | 52.00480 | 22.25181 | 122° | 91km/h | 13804m | -12.1m/s | -47.8°C | 1.1% | 149.3hPa | 0V | 08:11:00 | 00:00:00 | 00:00:00 | |
| KRY50SP | 2026-09-06 01:05:05 | 52.00547 | 22.24998 | 120° | 86km/h | 13874m | -13.6m/s | -47.4°C | 1.0% | 147.7hPa | 0V | 08:11:00 | 00:00:00 | 00:00:00 | |
| SP3WXH-11 | 2026-09-06 01:05:02 | 52.00597 | 22.24848 | 105° | 86km/h | 13935m | -9.7m/s | -47.4°C | 1.0% | 146.3hPa | 0V | 00:00:00 | 00:00:00 | 00:00:00 | |
| KRY50SP | 2026-09-06 01:04:59 | 52.00604 | 22.24817 | 116° | 82km/h | 13946m | -12.4m/s | -47.4°C | 1.0% | 146.1hPa | 0V | 08:11:00 | 00:00:00 | 00:00:00 | |
| SP4MAZ | 2026-09-06 01:04:56 | 52.00630 | 22.24723 | 115° | 84km/h | 13976m | -11.1m/s | -47.7°C | 1.1% | 145.4hPa | 0V | 00:00:00 | 00:00:00 | 00:00:00 | |
| KRY50SP | 2026-09-06 01:04:52 | 52.00664 | 22.24596 | 117° | 86km/h | 14019m | -12.4m/s | -47.5°C | 1.0% | 144.4hPa | 0V | 08:11:00 | 00:00:00 | 00:00:00 | |
| KRY50SP | 2026-09-06 01:04:47 | 52.00708 | 22.24436 | 116° | 86km/h | 14068m | -10.5m/s | -47.6°C | 1.1% | 143.2hPa | 0V | 08:12:00 | 00:00:00 | 00:00:00 | |
| KRY50SP | 2026-09-06 01:04:41 | 52.00767 | 22.24237 | 115° | 93km/h | 14137m | -12.6m/s | -47.8°C | 1.1% | 141.8hPa | 0V | 08:12:00 | 00:00:00 | 00:00:00 | |
| SP4MAZ | 2026-09-06 01:04:36 | 52.00814 | 22.24070 | 114° | 89km/h | 14202m | -12.4m/s | -48.0°C | 1.1% | 140.5hPa | 0V | 00:00:00 | 00:00:00 | 00:00:00 | |
| KRY50SP | 2026-09-06 01:04:35 | 52.00822 | 22.24035 | 116° | 93km/h | 14211m | -12.1m/s | -48.0°C | 1.1% | 140.2hPa | 0V | 08:12:00 | 00:00:00 | 00:00:00 | |
| KRY50SP | 2026-09-06 01:04:30 | 52.00866 | 22.23863 | 116° | 88km/h | 14269m | -12.4m/s | -47.8°C | 1.0% | 139.0hPa | 0V | 08:12:00 | 00:00:00 | 00:00:00 | |
| KRY50SP | 2026-09-06 01:04:24 | 52.00924 | 22.23670 | 116° | 84km/h | 14332m | -11.6m/s | -48.1°C | 1.1% | 137.6hPa | 0V | 08:12:00 | 00:00:00 | 00:00:00 | |
| KRY50SP | 2026-09-06 01:04:18 | 52.00982 | 22.23491 | 119° | 78km/h | 14396m | -13.4m/s | -48.0°C | 1.1% | 136.3hPa | 0V | 08:12:00 | 00:00:00 | 00:00:00 | |
| SP4MAZ | 2026-09-06 01:04:16 | 52.01003 | 22.23436 | 119° | 73km/h | 14423m | -12.7m/s | -48.1°C | 1.1% | 135.8hPa | 0V | 00:00:00 | 00:00:00 | 00:00:00 | |
| KRY50SP | 2026-09-06 01:04:12 | 52.01035 | 22.23331 | 116° | 68km/h | 14473m | -12.1m/s | -48.0°C | 1.0% | 134.9hPa | 0V | 08:12:00 | 00:00:00 | 00:00:00 | |
| KRY50SP | 2026-09-06 01:04:07 | 52.01072 | 22.23206 | 114° | 66km/h | 14534m | -12.4m/s | -48.3°C | 1.0% | 133.7hPa | 0V | 08:12:00 | 00:00:00 | 00:00:00 | |
| SP3WXH-11 | 2026-09-06 01:03:59 | 52.01129 | 22.22983 | 113° | 68km/h | 14643m | -12.5m/s | -48.8°C | 1.1% | 131.6hPa | 0V | 00:00:00 | 00:00:00 | 00:00:00 | |
| SP4MAZ | 2026-09-06 01:03:56 | 52.01142 | 22.22931 | 113° | 69km/h | 14669m | -12.5m/s | -49.0°C | 1.1% | 131.1hPa | 0V | 00:00:00 | 00:00:00 | 00:00:00 | |
| KRY50SP | 2026-09-06 01:03:50 | 52.01180 | 22.22771 | 112° | 73km/h | 14740m | -11.4m/s | -49.2°C | 1.1% | 129.7hPa | 0V | 08:13:00 | 00:00:00 | 00:00:00 | |
| KRY50SP | 2026-09-06 01:03:45 | 52.01220 | 22.22598 | 121° | 86km/h | 14810m | -15.5m/s | -48.3°C | 1.1% | 128.3hPa | 0V | 08:13:00 | 00:00:00 | 00:00:00 | |
| KRY50SP | 2026-09-06 01:03:39 | 52.01261 | 22.22445 | 113° | 80km/h | 14876m | -9.8m/s | -48.0°C | 1.0% | 127.2hPa | 0V | 08:13:00 | 00:00:00 | 00:00:00 | |
| KRY50SP | 2026-09-06 01:03:33 | 52.01313 | 22.22275 | 122° | 75km/h | 14939m | -12.5m/s | -48.3°C | 1.1% | 125.8hPa | 0V | 08:13:00 | 00:00:00 | 00:00:00 | |
| SP4MAZ | 2026-09-06 01:03:31 | 52.01331 | 22.22223 | 115° | 73km/h | 14960m | -11.8m/s | -47.9°C | 1.0% | 125.3hPa | 0V | 08:13:00 | 00:00:00 | 00:00:00 | |
| KRY50SP | 2026-09-06 01:03:28 | 52.01361 | 22.22115 | 118° | 71km/h | 15002m | -10.9m/s | -48.1°C | 1.0% | 124.5hPa | 0V | 08:13:00 | 00:00:00 | 00:00:00 | |
| KRY50SP | 2026-09-06 01:03:21 | 52.01405 | 22.21967 | 120° | 64km/h | 15070m | -10.8m/s | -48.3°C | 1.0% | 123.1hPa | 0V | 08:13:00 | 00:00:00 | 00:00:00 | |
| KRY50SP | 2026-09-06 01:03:15 | 52.01452 | 22.21832 | 118° | 60km/h | 15144m | -12.7m/s | -48.5°C | 1.0% | 121.8hPa | 0V | 08:13:00 | 00:00:00 | 00:00:00 | |
| SP4MAZ | 2026-09-06 01:03:10 | 52.01485 | 22.21718 | 117° | 60km/h | 15201m | -13.0m/s | -48.6°C | 1.0% | 120.7hPa | 0V | 08:13:00 | 00:00:00 | 00:00:00 | |
| KRY50SP | 2026-09-06 01:03:09 | 52.01492 | 22.21697 | 116° | 58km/h | 15215m | -12.8m/s | -48.7°C | 1.0% | 120.5hPa | 0V | 08:13:00 | 00:00:00 | 00:00:00 | |
| KRY50SP | 2026-09-06 01:03:04 | 52.01517 | 22.21585 | 110° | 58km/h | 15277m | -13.2m/s | -49.0°C | 1.0% | 119.4hPa | 0V | 08:14:00 | 00:00:00 | 00:00:00 | |
| SP3WXH-11 | 2026-09-06 01:02:57 | 52.01560 | 22.21400 | 105° | 62km/h | 15374m | -11.6m/s | -49.4°C | 1.1% | 117.6hPa | 0V | 00:00:00 | 00:00:00 | 00:00:00 | |
| KRY50SP | 2026-09-06 01:02:52 | 52.01583 | 22.21301 | 108° | 64km/h | 15420m | -10.7m/s | -49.7°C | 1.2% | 116.8hPa | 0V | 08:14:00 | 00:00:00 | 00:00:00 | |
| SP4MAZ | 2026-09-06 01:02:50 | 52.01592 | 22.21252 | 110° | 62km/h | 15441m | -10.6m/s | -49.8°C | 1.1% | 116.4hPa | 0V | 00:00:00 | 00:00:00 | 00:00:00 | |
| KRY50SP | 2026-09-06 01:02:47 | 52.01608 | 22.21182 | 113° | 58km/h | 15475m | -13.9m/s | -50.0°C | 1.1% | 115.8hPa | 0V | 08:14:00 | 00:00:00 | 00:00:00 | |
| KRY50SP | 2026-09-06 01:02:41 | 52.01643 | 22.21058 | 118° | 51km/h | 15551m | -11.9m/s | -49.6°C | 1.1% | 114.6hPa | 0V | 08:14:00 | 00:00:00 | 00:00:00 | |
| KRY50SP | 2026-09-06 01:02:36 | 52.01665 | 22.20963 | 106° | 46km/h | 15609m | -10.8m/s | -49.1°C | 1.0% | 113.6hPa | 0V | 08:14:00 | 00:00:00 | 00:00:00 | |
| KRY50SP | 2026-09-06 01:02:30 | 52.01688 | 22.20851 | 108° | 46km/h | 15678m | -11.1m/s | -49.2°C | 0% | 112.3hPa | 0V | 08:14:00 | 00:00:00 | 00:00:00 | |
| SP3WXH-11 | 2026-09-06 01:02:26 | 52.01705 | 22.20750 | 106° | 51km/h | 15730m | -11.7m/s | -49.3°C | 1.0% | 111.4hPa | 0V | 00:00:00 | 00:00:00 | 00:00:00 | |
| KRY50SP | 2026-09-06 01:02:25 | 52.01705 | 22.20750 | 107° | 51km/h | 15730m | -11.7m/s | 0°C | 0% | 111.4hPa | 0V | 08:14:00 | 00:00:00 | 00:00:00 | |
| KRY50SP | 2026-09-06 01:02:19 | 52.01726 | 22.20622 | 102° | 55km/h | 15798m | -13.6m/s | 0°C | 0% | 110.3hPa | 0V | 08:14:00 | 00:00:00 | 00:00:00 | |
| SP4MAZ | 2026-09-06 01:02:18 | 52.01728 | 22.20600 | 102° | 58km/h | 15812m | -13.8m/s | -49.7°C | 1.0% | 110.0hPa | 0V | 08:14:00 | 00:00:00 | 00:00:00 | |
| KRY50SP | 2026-09-06 01:02:14 | 52.01738 | 22.20508 | 101° | 60km/h | 15858m | -12.3m/s | 0°C | 0% | 109.2hPa | 0V | 00:00:00 | 00:00:00 | 00:00:00 | |
| KRY50SP | 2026-09-06 01:02:09 | 52.01753 | 22.20386 | 102° | 60km/h | 15918m | -12.0m/s | 0°C | 0% | 0hPa | 0V | 00:00:00 | 00:00:00 | 00:00:00 | |
| KRY50SP | 2026-09-06 01:02:03 | 52.01771 | 22.20229 | 101° | 69km/h | 15988m | -11.3m/s | 0°C | 0% | 0hPa | 0V | 00:00:00 | 00:00:00 | 00:00:00 | |
| SP3WXH-11 | 2026-09-06 01:01:55 | 52.01802 | 22.19960 | 103° | 77km/h | 16093m | -13.5m/s | -51.1°C | 1.1% | 105.4hPa | 0V | 00:00:00 | 00:00:00 | 00:00:00 | |
| KRY50SP | 2026-09-06 01:01:52 | 52.01813 | 22.19901 | 105° | 77km/h | 16116m | -12.3m/s | 0°C | 0% | 0hPa | 0V | 00:00:00 | 00:00:00 | 00:00:00 | |
| KRY50SP | 2026-09-06 01:01:46 | 52.01837 | 22.19725 | 107° | 68km/h | 16175m | -13.2m/s | 0°C | 0% | 0hPa | 0V | 00:00:00 | 00:00:00 | 00:00:00 | |
| SP4MAZ | 2026-09-06 01:01:37 | 52.01882 | 22.19501 | 109° | 58km/h | 16289m | -12.8m/s | -50.6°C | 1.1% | 102.2hPa | 0V | 00:00:00 | 00:00:00 | 00:00:00 | |
| SP3WXH-11 | 2026-09-06 01:01:24 | 52.01922 | 22.19202 | 100° | 53km/h | 16463m | -10.8m/s | -50.4°C | 1.1% | 99.5hPa | 0V | 00:00:00 | 00:00:00 | 00:00:00 | |
| SP4MAZ | 2026-09-06 01:01:11 | 52.01954 | 22.18940 | 101° | 62km/h | 16613m | -11.3m/s | -51.1°C | 1.1% | 97.3hPa | 0V | 00:00:00 | 00:00:00 | 00:00:00 | |
| SP3WXH-11 | 2026-09-06 01:00:53 | 52.02045 | 22.18480 | 113° | 66km/h | 16830m | -15.1m/s | -50.1°C | 1.0% | 94.0hPa | 0V | 00:00:00 | 00:00:00 | 00:00:00 | |
| SP4MAZ | 2026-09-06 01:00:50 | 52.02058 | 22.18429 | 116° | 71km/h | 16858m | -13.8m/s | -50.0°C | 1.1% | 93.6hPa | 0V | 00:00:00 | 00:00:00 | 00:00:00 | |
| SP4MAZ | 2026-09-06 01:00:30 | 52.02201 | 22.17946 | 122° | 62km/h | 17115m | -15.5m/s | -49.1°C | 1.0% | 90.0hPa | 0V | 00:00:00 | 00:00:00 | 00:00:00 | |
| SP3WXH-11 | 2026-09-06 01:00:22 | 52.02276 | 22.17753 | 123° | 60km/h | 17236m | -13.3m/s | -49.9°C | 1.0% | 88.4hPa | 0V | 00:00:00 | 00:00:00 | 00:00:00 | |
| SP4MAZ | 2026-09-06 01:00:09 | 52.02353 | 22.17528 | 109° | 46km/h | 17410m | -14.9m/s | -50.1°C | 1.0% | 86.2hPa | 0V | 00:00:00 | 00:00:00 | 00:00:00 | |
| SP3WXH-11 | 2026-09-06 00:59:51 | 52.02374 | 22.17173 | 91° | 49km/h | 17657m | -13.3m/s | -51.1°C | 1.1% | 83.0hPa | 0V | 00:00:00 | 00:00:00 | 00:00:00 | |
| SP4MAZ | 2026-09-06 00:59:49 | 52.02374 | 22.17151 | 91° | 53km/h | 17668m | -12.8m/s | -51.1°C | 1.1% | 82.8hPa | 0V | 00:00:00 | 00:00:00 | 00:00:00 | |
| SP4MAZ | 2026-09-06 00:59:27 | 52.02396 | 22.16626 | 96° | 73km/h | 17947m | -15.5m/s | -50.5°C | 1.0% | 79.4hPa | 0V | 00:00:00 | 00:00:00 | 00:00:00 | |
| SP3WXH-11 | 2026-09-06 00:59:20 | 52.02413 | 22.16413 | 107° | 60km/h | 18051m | -11.1m/s | -50.6°C | 1.1% | 78.0hPa | 0V | 00:00:00 | 00:00:00 | 00:00:00 | |
| SP4MAZ | 2026-09-06 00:59:04 | 52.02475 | 22.16109 | 111° | 46km/h | 18251m | -12.3m/s | -49.8°C | 1.0% | 75.9hPa | 0V | 00:00:00 | 00:00:00 | 00:00:00 | |
| SP3WXH-11 | 2026-09-06 00:58:49 | 52.02511 | 22.15821 | 95° | 46km/h | 18429m | -14.4m/s | -50.6°C | 1.1% | 73.6hPa | 0V | 00:00:00 | 00:00:00 | 00:00:00 | |
| SP4MAZ | 2026-09-06 00:58:43 | 52.02521 | 22.15725 | 101° | 46km/h | 18512m | -15.4m/s | -49.4°C | 1.0% | 72.8hPa | 0V | 00:00:00 | 00:00:00 | 00:00:00 | |
| SP4MAZ | 2026-09-06 00:58:22 | 52.02624 | 22.15385 | 139° | 47km/h | 18790m | -15.2m/s | -49.7°C | 0.9% | 69.8hPa | 0V | 00:00:00 | 00:00:00 | 00:00:00 | |
| SP3WXH-11 | 2026-09-06 00:58:18 | 52.02673 | 22.15316 | 143° | 38km/h | 18866m | -16.7m/s | -50.1°C | 0.9% | 69.0hPa | 0V | 00:00:00 | 00:00:00 | 00:00:00 | |
| SP3WXH-11 | 2026-09-06 00:57:47 | 52.02816 | 22.15111 | 121° | 20km/h | 19267m | -13.0m/s | -52.0°C | 1.1% | 64.9hPa | 0V | 00:00:00 | 00:00:00 | 00:00:00 | |
| SP4MAZ | 2026-09-06 00:57:41 | 52.02830 | 22.15067 | 117° | 26km/h | 19332m | -14.7m/s | -52.1°C | 1.1% | 64.3hPa | 0V | 00:00:00 | 00:00:00 | 00:00:00 | |
| SP4MAZ | 2026-09-06 00:57:18 | 52.02921 | 22.14763 | 129° | 37km/h | 19622m | -12.7m/s | -52.6°C | 1.1% | 61.4hPa | 0V | 00:00:00 | 00:00:00 | 00:00:00 | |
| SP3WXH-11 | 2026-09-06 00:57:16 | 52.02941 | 22.14721 | 129° | 29km/h | 19674m | -16.7m/s | -52.0°C | 1.1% | 60.9hPa | 0V | 00:00:00 | 00:00:00 | 00:00:00 | |
| SP3WXH-11 | 2026-09-06 00:56:45 | 52.02945 | 22.14463 | 82° | 33km/h | 20079m | -12.9m/s | -53.3°C | 1.2% | 57.2hPa | 0V | 00:00:00 | 00:00:00 | 00:00:00 | |
| SP4MAZ | 2026-09-06 00:56:26 | 52.02948 | 22.14236 | 79° | 27km/h | 20324m | -15.0m/s | -52.0°C | 1.1% | 55.0hPa | 0V | 00:00:00 | 00:00:00 | 00:00:00 | |
| SP3WXH-11 | 2026-09-06 00:56:14 | 52.02913 | 22.14034 | 82° | 35km/h | 20524m | -11.4m/s | -51.4°C | 1.0% | 53.4hPa | 0V | 00:00:00 | 00:00:00 | 00:00:00 | |
| SP4MAZ | 2026-09-06 00:56:05 | 52.02913 | 22.13931 | 96° | 35km/h | 20607m | -14.9m/s | -51.3°C | 1.1% | 52.8hPa | 0V | 00:00:00 | 00:00:00 | 00:00:00 | |
| SP4MAZ | 2026-09-06 00:55:44 | 52.02935 | 22.13703 | 105° | 24km/h | 20892m | -15.1m/s | -50.7°C | 1.0% | 50.5hPa | 0V | 00:00:00 | 00:00:00 | 00:00:00 | |
| SP3WXH-11 | 2026-09-06 00:55:43 | 52.02939 | 22.13670 | 106° | 26km/h | 20935m | -14.4m/s | -50.7°C | 1.0% | 50.2hPa | 0V | 00:00:00 | 00:00:00 | 00:00:00 | |
| SP3WXH-11 | 2026-09-06 00:55:12 | 52.03040 | 22.13345 | 105° | 31km/h | 21383m | -13.6m/s | -52.6°C | 1.1% | 46.8hPa | 0V | 00:00:00 | 00:00:00 | 00:00:00 | |
| SP4MAZ | 2026-09-06 00:55:02 | 52.03047 | 22.13223 | 92° | 51km/h | 21488m | -15.1m/s | -53.1°C | 1.1% | 46.0hPa | 0V | 00:00:00 | 00:00:00 | 00:00:00 | |
| SP4MAZ | 2026-09-06 00:54:42 | 52.03127 | 22.12998 | 157° | 22km/h | 21769m | -13.7m/s | -52.7°C | 1.1% | 44.1hPa | 0V | 00:00:00 | 00:00:00 | 00:00:00 | |
| SP3WXH-11 | 2026-09-06 00:54:41 | 52.03137 | 22.12993 | 152° | 13km/h | 21810m | -13.9m/s | -52.8°C | 1.1% | 43.8hPa | 0V | 00:00:00 | 00:00:00 | 00:00:00 | |
| SP4MAZ | 2026-09-06 00:54:22 | 52.03185 | 22.12933 | 136° | 5km/h | 22045m | -15.9m/s | -52.7°C | 1.1% | 42.2hPa | 0V | 00:00:00 | 00:00:00 | 00:00:00 | |
| SP3WXH-11 | 2026-09-06 00:54:10 | 52.03183 | 22.12874 | 68° | 11km/h | 22258m | -17.8m/s | -53.0°C | 1.1% | 40.9hPa | 0V | 00:00:00 | 00:00:00 | 00:00:00 | |
| SP4MAZ | 2026-09-06 00:54:02 | 52.03173 | 22.12835 | 76° | 22km/h | 22346m | -12.6m/s | -53.5°C | 1.2% | 40.3hPa | 0V | 00:00:00 | 00:00:00 | 00:00:00 | |
| SP4MAZ | 2026-09-06 00:53:41 | 52.03219 | 22.12584 | 113° | 33km/h | 22654m | -12.1m/s | -52.3°C | 1.1% | 38.5hPa | 0V | 00:00:00 | 00:00:00 | 00:00:00 | |
| SP3WXH-11 | 2026-09-06 00:53:39 | 52.03229 | 22.12536 | 121° | 29km/h | 22694m | -14.9m/s | -52.4°C | 1.1% | 38.1hPa | 0V | 00:00:00 | 00:00:00 | 00:00:00 | |
| SP4MAZ | 2026-09-06 00:53:21 | 52.03279 | 22.12416 | 138° | 13km/h | 22933m | -14.8m/s | -52.1°C | 1.0% | 36.8hPa | 0V | 00:00:00 | 00:00:00 | 00:00:00 | |
| SP3WXH-11 | 2026-09-06 00:53:08 | 52.03288 | 22.12361 | 100° | 18km/h | 23154m | -19.2m/s | -52.3°C | 1.0% | 35.6hPa | 0V | 00:00:00 | 00:00:00 | 00:00:00 | |
| SP4MAZ | 2026-09-06 00:53:00 | 52.03293 | 22.12307 | 105° | 27km/h | 23250m | -16.8m/s | -52.4°C | 1.1% | 35.1hPa | 0V | 00:00:00 | 00:00:00 | 00:00:00 | |
| SP4MAZ | 2026-09-06 00:52:40 | 52.03379 | 22.12181 | 134° | 20km/h | 23469m | -26.6m/s | -53.1°C | 1.1% | 33.4hPa | 0V | 00:00:00 | 00:00:00 | 00:00:00 | |
| SP3WXH-11 | 2026-09-06 00:52:37 | 52.03392 | 22.12160 | 137° | 15km/h | 23607m | -20.7m/s | -52.6°C | 1.1% | 33.0hPa | 0V | 00:00:00 | 00:00:00 | 00:00:00 | |
| SP4MAZ | 2026-09-06 00:52:20 | 52.03436 | 22.12088 | 159° | 15km/h | 23872m | -17.9m/s | -52.6°C | 1.1% | 31.8hPa | 0V | 00:00:00 | 00:00:00 | 00:00:00 | |
| SP3WXH-11 | 2026-09-06 00:52:06 | 52.03441 | 22.12084 | 7° | 9km/h | 24111m | -10.1m/s | -52.3°C | 1.0% | 30.7hPa | 0V | 00:00:00 | 00:00:00 | 00:00:00 | |
| SP4MAZ | 2026-09-06 00:52:01 | 52.03431 | 22.12080 | 31° | 7km/h | 24161m | -15.7m/s | -52.6°C | 1.0% | 30.4hPa | 0V | 00:00:00 | 00:00:00 | 00:00:00 | |
| SP4MAZ | 2026-09-06 00:51:39 | 52.03396 | 22.12036 | 44° | 18km/h | 24494m | -13.9m/s | -52.9°C | 1.1% | 28.9hPa | 0V | 00:00:00 | 00:00:00 | 00:00:00 | |
| SP3WXH-11 | 2026-09-06 00:51:34 | 52.03383 | 22.12000 | 59° | 18km/h | 24596m | -20.1m/s | -53.1°C | 1.1% | 28.5hPa | 0V | 00:00:00 | 00:00:00 | 00:00:00 | |
| SONDE2-11 | 2026-09-06 00:51:29 | 52.03374 | 22.11958 | 82° | 24km/h | 24679m | -18.3m/s | -52.8°C | 1.1% | 28.1hPa | 0V | 00:00:00 | 00:00:00 | 00:00:00 | |
| SP4MAZ | 2026-09-06 00:51:18 | 52.03382 | 22.11833 | 108° | 31km/h | 24830m | -17.2m/s | -52.3°C | 1.1% | 27.4hPa | 0V | 00:00:00 | 00:00:00 | 00:00:00 | |
| SP3WXH-11 | 2026-09-06 00:51:03 | 52.03410 | 22.11667 | 73° | 29km/h | 25057m | -15.0m/s | -51.2°C | 1.1% | 26.4hPa | 0V | 00:00:00 | 00:00:00 | 00:00:00 | |
| SP4MAZ | 2026-09-06 00:50:58 | 52.03408 | 22.11622 | 83° | 29km/h | 25121m | -15.8m/s | -50.3°C | 0.9% | 26.2hPa | 0V | 00:00:00 | 00:00:00 | 00:00:00 | |
| SP4MAZ | 2026-09-06 00:50:37 | 52.03494 | 22.11403 | 152° | 35km/h | 25447m | -19.4m/s | -49.4°C | 0.9% | 24.9hPa | 0V | 00:00:00 | 00:00:00 | 00:00:00 | |
| SP3WXH-11 | 2026-09-06 00:50:32 | 52.03537 | 22.11371 | 157° | 27km/h | 25538m | -14.3m/s | -49.9°C | 0.9% | 24.5hPa | 0V | 00:00:00 | 00:00:00 | 00:00:00 | |
| SP4MAZ | 2026-09-06 00:50:11 | 52.03632 | 22.11263 | 171° | 13km/h | 25869m | -19.1m/s | -49.4°C | 0.9% | 23.4hPa | 0V | 00:00:00 | 00:00:00 | 00:00:00 | |
| SP4MAZ | 2026-09-06 00:49:51 | 52.03656 | 22.11193 | 114° | 13km/h | 26195m | -16.7m/s | -48.3°C | 0.8% | 22.3hPa | 0V | 00:00:00 | 00:00:00 | 00:00:00 | |
| SP3WXH-11 | 2026-09-06 00:49:30 | 52.03702 | 22.11071 | 168° | 16km/h | 26542m | -16.5m/s | -48.8°C | 0.8% | 21.1hPa | 0V | 00:00:00 | 00:00:00 | 00:00:00 | |
| SP4MAZ | 2026-09-06 00:49:18 | 52.03741 | 22.11054 | 160° | 9km/h | 26722m | -11.9m/s | -49.3°C | 0.9% | 20.5hPa | 0V | 00:00:00 | 00:00:00 | 00:00:00 | |
| SONDE2-11 | 2026-09-06 00:48:54 | 52.03797 | 22.10994 | 130° | 13km/h | 27279m | -25.1m/s | -49.6°C | 0.9% | 18.9hPa | 0V | 00:00:00 | 00:00:00 | 00:00:00 | |
| SP4MAZ | 2026-09-06 00:48:36 | 52.03812 | 22.10935 | 114° | 11km/h | 27497m | -18.3m/s | -49.3°C | 0.9% | 18.3hPa | 0V | 00:00:00 | 00:00:00 | 00:00:00 | |
| SP3WXH-11 | 2026-09-06 00:48:28 | 52.03823 | 22.10901 | 88° | 16km/h | 27646m | -15.5m/s | -48.9°C | 0.8% | 17.8hPa | 0V | 00:00:00 | 00:00:00 | 00:00:00 | |
| SP4MAZ | 2026-09-06 00:48:16 | 52.03827 | 22.10848 | 110° | 2km/h | 27823m | -16.6m/s | -49.0°C | 0.9% | 17.4hPa | 0V | 00:00:00 | 00:00:00 | 00:00:00 | |
| SP3WXH-11 | 2026-09-06 00:47:57 | 52.03830 | 22.10768 | 84° | 16km/h | 28167m | -17.8m/s | -49.1°C | 0.9% | 16.5hPa | 0V | 00:00:00 | 00:00:00 | 00:00:00 | |
| SONDE2-11 | 2026-09-06 00:47:52 | 52.03848 | 22.10697 | 132° | 16km/h | 28315m | -20.2m/s | -49.0°C | 0.9% | 16.1hPa | 0V | 00:00:00 | 00:00:00 | 00:00:00 | |
| SP4MAZ | 2026-09-06 00:47:33 | 52.03899 | 22.10597 | 139° | 18km/h | 28563m | -20.0m/s | -48.1°C | 0.8% | 15.5hPa | 0V | 00:00:00 | 00:00:00 | 00:00:00 | |
| SP3WXH-11 | 2026-09-06 00:47:26 | 52.03932 | 22.10571 | 166° | 18km/h | 28691m | -16.4m/s | -48.6°C | 0.8% | 15.2hPa | 0V | 00:00:00 | 00:00:00 | 00:00:00 | |
| SONDE2-11 | 2026-09-06 00:47:21 | 52.03951 | 22.10581 | 217° | 11km/h | 28794m | -20.8m/s | -48.5°C | 0.8% | 14.9hPa | 0V | 00:00:00 | 00:00:00 | 00:00:00 | |
| SP4MAZ | 2026-09-06 00:47:12 | 52.03944 | 22.10578 | 51° | 16km/h | 28947m | -24.8m/s | -49.1°C | 0.9% | 14.6hPa | 0V | 00:00:00 | 00:00:00 | 00:00:00 | |
| SP3WXH-11 | 2026-09-06 00:46:55 | 52.03916 | 22.10415 | 90° | 33km/h | 29278m | -19.1m/s | -48.9°C | 0.9% | 13.9hPa | 0V | 00:00:00 | 00:00:00 | 00:00:00 | |
| SONDE2-11 | 2026-09-06 00:46:49 | 52.03911 | 22.10326 | 102° | 37km/h | 29401m | -18.8m/s | -48.4°C | 0.9% | 13.6hPa | 0V | 00:00:00 | 00:00:00 | 00:00:00 | |
| SP4MAZ | 2026-09-06 00:46:45 | 52.03924 | 22.10284 | 117° | 40km/h | 29449m | -13.4m/s | -48.4°C | 0.9% | 13.5hPa | 0V | 00:00:00 | 00:00:00 | 00:00:00 | |
| SP3WXH-11 | 2026-09-06 00:46:24 | 52.04062 | 22.10090 | 134° | 22km/h | 29953m | -29.5m/s | -46.0°C | 0.8% | 12.5hPa | 0V | 00:00:00 | 00:00:00 | 00:00:00 | |
| SP4MAZ | 2026-09-06 00:46:23 | 52.04067 | 22.10083 | 123° | 24km/h | 29982m | -29.6m/s | -45.9°C | 0.8% | 12.5hPa | 0V | 00:00:00 | 00:00:00 | 00:00:00 | |
| SONDE2-11 | 2026-09-06 00:46:19 | 52.04087 | 22.10051 | 149° | 24km/h | 30106m | -26.6m/s | -45.6°C | 0.7% | 12.2hPa | 0V | 00:00:00 | 00:00:00 | 00:00:00 | |
| SP3WXH-11 | 2026-09-06 00:45:53 | 52.04191 | 22.09974 | 152° | 15km/h | 30227m | 6.1m/s | -45.5°C | 0.7% | 11.9hPa | 0V | 00:00:00 | 00:00:00 | 00:00:00 | |
| SP4MAZ | 2026-09-06 00:45:41 | 52.04247 | 22.09912 | 137° | 26km/h | 30148m | 6.5m/s | -45.9°C | 0.7% | 12.1hPa | 0V | 00:00:00 | 00:00:00 | 00:00:00 | |
| SP3BTT-10 | 2026-09-06 00:45:23 | 52.04337 | 22.09789 | 121° | 38km/h | 30022m | 8.6m/s | 0°C | 0% | 0hPa | 0V | 00:00:00 | 00:00:00 | 00:00:00 | |
| SP3WXH-11 | 2026-09-06 00:45:22 | 52.04340 | 22.09780 | 109° | 27km/h | 30015m | 7.1m/s | -46.4°C | 0.8% | 12.4hPa | 0V | 00:00:00 | 00:00:00 | 00:00:00 | |
| SONDE2-11 | 2026-09-06 00:45:17 | 52.04355 | 22.09746 | 165° | 15km/h | 29974m | 7.2m/s | -46.6°C | 0.8% | 12.4hPa | 0V | 00:00:00 | 00:00:00 | 00:00:00 | |
| SP3WXH-11 | 2026-09-06 00:44:51 | 52.04476 | 22.09586 | 125° | 40km/h | 29800m | 6.9m/s | -47.6°C | 0.8% | 12.8hPa | 0V | 00:00:00 | 00:00:00 | 00:00:00 | |
| SONDE2-11 | 2026-09-06 00:44:45 | 52.04519 | 22.09535 | 154° | 33km/h | 29756m | 8.2m/s | -47.9°C | 0.8% | 12.9hPa | 0V | 00:00:00 | 00:00:00 | 00:00:00 | |
| SP3WXH-11 | 2026-09-06 00:44:20 | 52.04716 | 22.09276 | 137° | 47km/h | 29582m | 7.5m/s | -48.4°C | 0.9% | 13.2hPa | 0V | 00:00:00 | 00:00:00 | 00:00:00 | |
| SP4MAZ | 2026-09-06 00:44:19 | 52.04716 | 22.09276 | 139° | 49km/h | 29583m | 7.5m/s | -48.4°C | 0.9% | 13.2hPa | 0V | 00:00:00 | 00:00:00 | 00:00:00 | |
| SONDE2-11 | 2026-09-06 00:44:14 | 52.04763 | 22.09186 | 124° | 37km/h | 29531m | 8.3m/s | -48.7°C | 0.9% | 13.3hPa | 0V | 00:00:00 | 00:00:00 | 00:00:00 | |
| SP3BTT-10 | 2026-09-06 00:44:06 | 52.04806 | 22.09078 | 131° | 26km/h | 29480m | 6.9m/s | 0°C | 0% | 0hPa | 0V | 00:00:00 | 00:00:00 | 00:00:00 | |
| SP3WXH-11 | 2026-09-06 00:43:49 | 52.04849 | 22.08829 | 81° | 37km/h | 29366m | 7.7m/s | -49.1°C | 0.9% | 13.7hPa | 0V | 00:00:00 | 00:00:00 | 00:00:00 | |
| SP4MAZ | 2026-09-06 00:43:32 | 52.04814 | 22.08613 | 55° | 29km/h | 29248m | 6.1m/s | -49.5°C | 0.9% | 13.9hPa | 0V | 00:00:00 | 00:00:00 | 00:00:00 | |
| SP3WXH-11 | 2026-09-06 00:43:18 | 52.04781 | 22.08490 | 56° | 22km/h | 29135m | 8.2m/s | -49.4°C | 0.9% | 14.2hPa | 0V | 00:00:00 | 00:00:00 | 00:00:00 | |
| SONDE2-11 | 2026-09-06 00:43:12 | 52.04771 | 22.08461 | 97° | 24km/h | 29103m | 5.7m/s | -49.3°C | 0.9% | -1.0hPa | 0V | 00:00:00 | 00:00:00 | 00:00:00 | |
| SP4MAZ | 2026-09-06 00:43:11 | 52.04771 | 22.08451 | 99° | 22km/h | 29099m | 5.3m/s | -49.3°C | 0.9% | 14.2hPa | 0V | 00:00:00 | 00:00:00 | 00:00:00 | |
| SP3BTT-10 | 2026-09-06 00:43:06 | 52.04768 | 22.08417 | 64° | 20km/h | 29066m | 8.6m/s | 0°C | 0% | 0hPa | 0V | 00:00:00 | 00:00:00 | 00:00:00 | |
| SP3WXH-11 | 2026-09-06 00:42:47 | 52.04713 | 22.08343 | 317° | 16km/h | 28908m | 5.5m/s | -49.0°C | 0.9% | 14.6hPa | 0V | 00:00:00 | 00:00:00 | 00:00:00 | |
| SONDE2-11 | 2026-09-06 00:42:41 | 52.04710 | 22.08351 | 330° | 2km/h | 28882m | 6.8m/s | -49.0°C | 0.9% | -1.0hPa | 0V | 00:00:00 | 00:00:00 | 00:00:00 | |
| SP4MAZ | 2026-09-06 00:42:28 | 52.04723 | 22.08360 | 211° | 15km/h | 28800m | 4.2m/s | -48.5°C | 0.8% | 14.9hPa | 0V | 00:00:00 | 00:00:00 | 00:00:00 | |
| SP3WXH-11 | 2026-09-06 00:42:16 | 52.04751 | 22.08346 | 192° | 18km/h | 28711m | 6.2m/s | -48.8°C | 0.9% | 15.1hPa | 0V | 00:00:00 | 00:00:00 | 00:00:00 | |
| SONDE2-11 | 2026-09-06 00:42:10 | 52.04762 | 22.08331 | 133° | 18km/h | 28680m | 7.0m/s | -48.6°C | -1.0% | -1.0hPa | 0V | 00:00:00 | 00:00:00 | 00:00:00 | |
| SP4MAZ | 2026-09-06 00:42:08 | 52.04765 | 22.08325 | 142° | 22km/h | 28674m | 6.2m/s | -48.6°C | 0.9% | 15.2hPa | 0V | 00:00:00 | 00:00:00 | 00:00:00 | |
| SP3BTT-10 | 2026-09-06 00:42:06 | 52.04779 | 22.08311 | 152° | 18km/h | 28652m | 7.3m/s | 0°C | 0% | 0hPa | 0V | 00:00:00 | 00:00:00 | 00:00:00 | |
| SP4MAZ | 2026-09-06 00:41:48 | 52.04857 | 22.08187 | 146° | 27km/h | 28537m | 7.3m/s | -48.5°C | 0.9% | 15.5hPa | 0V | 00:00:00 | 00:00:00 | 00:00:00 | |
| SP3WXH-11 | 2026-09-06 00:41:45 | 52.04876 | 22.08147 | 109° | 26km/h | 28511m | 7.4m/s | -48.6°C | 0.9% | 15.6hPa | 0V | 00:00:00 | 00:00:00 | 00:00:00 | |
| SONDE2-11 | 2026-09-06 00:41:39 | 52.04881 | 22.08100 | 110° | 24km/h | 28477m | 5.8m/s | 0°C | -1.0% | -1.0hPa | 0V | 00:00:00 | 00:00:00 | 00:00:00 | |
| SP4MAZ | 2026-09-06 00:41:26 | 52.04915 | 22.08028 | 112° | 18km/h | 28401m | 7.0m/s | -49.1°C | 0.9% | 15.9hPa | 0V | 00:00:00 | 00:00:00 | 00:00:00 | |
| SP3WXH-11 | 2026-09-06 00:41:14 | 52.04960 | 22.07897 | 118° | 33km/h | 28296m | 7.6m/s | -49.3°C | 0.9% | 16.1hPa | 0V | 00:00:00 | 00:00:00 | 00:00:00 | |
| SONDE2-11 | 2026-09-06 00:41:08 | 52.04979 | 22.07840 | 107° | 18km/h | 28257m | 7.2m/s | 0°C | -1.0% | -1.0hPa | 0V | 00:00:00 | 00:00:00 | 00:00:00 | |
| SP4MAZ | 2026-09-06 00:41:06 | 52.04979 | 22.07840 | 108° | 18km/h | 28257m | 7.2m/s | -49.1°C | 0.9% | 16.2hPa | 0V | 00:00:00 | 00:00:00 | 00:00:00 | |
| SP3BTT-10 | 2026-09-06 00:40:54 | 52.04990 | 22.07748 | 80° | 18km/h | 28166m | 4.7m/s | 0°C | 0% | 0hPa | 0V | 00:00:00 | 00:00:00 | 00:00:00 | |
| SP3WXH-11 | 2026-09-06 00:40:43 | 52.04998 | 22.07714 | 105° | 9km/h | 28078m | 5.9m/s | -49.1°C | 0.9% | 16.7hPa | 0V | 00:00:00 | 00:00:00 | 00:00:00 | |
| SP3BTT-10 | 2026-09-06 00:40:23 | 52.04995 | 22.07597 | 62° | 16km/h | 27943m | 6.5m/s | 0°C | 0% | 0hPa | 0V | 00:00:00 | 00:00:00 | 00:00:00 | |
| SP4MAZ | 2026-09-06 00:40:15 | 52.04980 | 22.07577 | 137° | 5km/h | 27891m | 7.3m/s | -48.7°C | 0.9% | 17.1hPa | 0V | 00:00:00 | 00:00:00 | 00:00:00 | |
| SP3WXH-11 | 2026-09-06 00:40:12 | 52.04991 | 22.07566 | 115° | 15km/h | 27854m | 6.6m/s | -48.6°C | 0.9% | 17.2hPa | 0V | 00:00:00 | 00:00:00 | 00:00:00 | |
| SP4MAZ | 2026-09-06 00:39:49 | 52.04990 | 22.07477 | 88° | 9km/h | 27693m | 5.0m/s | -48.7°C | 0.9% | 17.6hPa | 0V | 00:00:00 | 00:00:00 | 00:00:00 | |
| SP3WXH-11 | 2026-09-06 00:39:41 | 52.04996 | 22.07433 | 68° | 22km/h | 27632m | 7.9m/s | -48.5°C | 0.9% | 17.8hPa | 0V | 00:00:00 | 00:00:00 | 00:00:00 | |
| SP3BTT-10 | 2026-09-06 00:39:39 | 52.04993 | 22.07425 | 66° | 11km/h | 27624m | 6.3m/s | 0°C | 0% | 0hPa | 0V | 00:00:00 | 00:00:00 | 00:00:00 | |
| SP4MAZ | 2026-09-06 00:39:28 | 52.05016 | 22.07392 | 103° | 11km/h | 27551m | 6.9m/s | -48.4°C | 0.9% | 18.0hPa | 0V | 00:00:00 | 00:00:00 | 00:00:00 | |
| SP3WXH-11 | 2026-09-06 00:39:09 | 52.05040 | 22.07330 | 85° | 15km/h | 27412m | 4.8m/s | -48.4°C | 0.9% | 18.4hPa | 0V | 00:00:00 | 00:00:00 | 00:00:00 | |
| SP4MAZ | 2026-09-06 00:39:06 | 52.05040 | 22.07317 | 69° | 7km/h | 27398m | 5.2m/s | -48.4°C | 0.9% | 18.5hPa | 0V | 00:00:00 | 00:00:00 | 00:00:00 | |
| SP3BTT-10 | 2026-09-06 00:38:52 | 52.05052 | 22.07263 | 54° | 9km/h | 27294m | 5.5m/s | 0°C | 0% | 0hPa | 0V | 00:00:00 | 00:00:00 | 00:00:00 | |
| SP4MAZ | 2026-09-06 00:38:45 | 52.05064 | 22.07236 | 119° | 13km/h | 27250m | 7.0m/s | -48.4°C | 0.9% | 18.9hPa | 0V | 00:00:00 | 00:00:00 | 00:00:00 | |
| SP3WXH-11 | 2026-09-06 00:38:39 | 52.05074 | 22.07204 | 115° | 9km/h | 27194m | 6.1m/s | -48.3°C | 0.8% | 19.1hPa | 0V | 00:00:00 | 00:00:00 | 00:00:00 | |
| SP4MAZ | 2026-09-06 00:38:25 | 52.05104 | 22.07172 | 56° | 9km/h | 27113m | 5.1m/s | -48.6°C | 0.9% | 19.3hPa | 0V | 00:00:00 | 00:00:00 | 00:00:00 | |
| SP3WXH-11 | 2026-09-06 00:38:07 | 52.05133 | 22.07091 | 160° | 16km/h | 26993m | 6.1m/s | -49.0°C | 0.9% | 19.6hPa | 0V | 00:00:00 | 00:00:00 | 00:00:00 | |
| SP4MAZ | 2026-09-06 00:38:03 | 52.05142 | 22.07090 | 176° | 7km/h | 26970m | 7.9m/s | -49.2°C | 0.9% | 19.7hPa | 0V | 00:00:00 | 00:00:00 | 00:00:00 | |
| SP4MAZ | 2026-09-06 00:37:42 | 52.05163 | 22.07055 | 92° | 4km/h | 26827m | 6.1m/s | -49.2°C | 0.9% | 20.2hPa | 0V | 00:00:00 | 00:00:00 | 00:00:00 | |
| SP3WXH-11 | 2026-09-06 00:37:36 | 52.05159 | 22.07057 | 225° | 7km/h | 26800m | 7.2m/s | -49.1°C | 0.9% | 20.3hPa | 0V | 00:00:00 | 00:00:00 | 00:00:00 | |
| SP4MAZ | 2026-09-06 00:37:20 | 52.05174 | 22.07066 | 189° | 13km/h | 26700m | 6.3m/s | -49.0°C | 0.9% | 20.6hPa | 0V | 00:00:00 | 00:00:00 | 00:00:00 | |
| SP3WXH-11 | 2026-09-06 00:37:05 | 52.05197 | 22.07021 | 133° | 13km/h | 26604m | 7.4m/s | -48.9°C | 0.9% | 20.9hPa | 0V | 00:00:00 | 00:00:00 | 00:00:00 | |
| SP4MAZ | 2026-09-06 00:36:59 | 52.05206 | 22.07001 | 154° | 9km/h | 26566m | 5.3m/s | -48.9°C | 0.9% | 21.0hPa | 0V | 00:00:00 | 00:00:00 | 00:00:00 | |
| SP4MAZ | 2026-09-06 00:36:39 | 52.05240 | 22.06924 | 64° | 13km/h | 26435m | 6.3m/s | -48.7°C | 0.9% | 21.4hPa | 0V | 00:00:00 | 00:00:00 | 00:00:00 | |
| SP4MAZ | 2026-09-06 00:36:18 | 52.05249 | 22.06801 | 84° | 22km/h | 26310m | 5.7m/s | -49.1°C | 0.9% | 21.8hPa | 0V | 00:00:00 | 00:00:00 | 00:00:00 | |
| SP3WXH-11 | 2026-09-06 00:36:03 | 52.05257 | 22.06717 | 90° | 20km/h | 26207m | 7.3m/s | -49.3°C | 0.9% | 22.1hPa | 0V | 00:00:00 | 00:00:00 | 00:00:00 | |
| SP4MAZ | 2026-09-06 00:35:56 | 52.05260 | 22.06661 | 95° | 16km/h | 26171m | 6.9m/s | -49.5°C | 0.9% | 22.3hPa | 0V | 00:00:00 | 00:00:00 | 00:00:00 | |
| SP3WXH-11 | 2026-09-06 00:35:32 | 52.05314 | 22.06583 | 162° | 22km/h | 26020m | 6.9m/s | -50.0°C | 1.0% | 22.8hPa | 0V | 00:00:00 | 00:00:00 | 00:00:00 | |
| SP4MAZ | 2026-09-06 00:35:26 | 52.05343 | 22.06572 | 164° | 26km/h | 25987m | 5.7m/s | -50.0°C | 1.0% | 23.0hPa | 0V | 00:00:00 | 00:00:00 | 00:00:00 | |
| SP3WXH-11 | 2026-09-06 00:35:01 | 52.05465 | 22.06491 | 123° | 27km/h | 25827m | 7.9m/s | -49.3°C | 0.9% | 23.5hPa | 0V | 00:00:00 | 00:00:00 | 00:00:00 | |
| SP4MAZ | 2026-09-06 00:35:00 | 52.05469 | 22.06482 | 141° | 24km/h | 25818m | 7.2m/s | -49.3°C | 0.9% | 23.5hPa | 0V | 00:00:00 | 00:00:00 | 00:00:00 | |
| SP4MAZ | 2026-09-06 00:34:39 | 52.05576 | 22.06372 | 153° | 20km/h | 25688m | 6.8m/s | -49.6°C | 0.9% | 24.0hPa | 0V | 00:00:00 | 00:00:00 | 00:00:00 | |
| SP3WXH-11 | 2026-09-06 00:34:30 | 52.05619 | 22.06296 | 129° | 18km/h | 25622m | 6.4m/s | -49.5°C | 1.0% | 24.3hPa | 0V | 00:00:00 | 00:00:00 | 00:00:00 | |
| SP4MAZ | 2026-09-06 00:34:19 | 52.05681 | 22.06234 | 143° | 35km/h | 25560m | 7.4m/s | -49.6°C | 1.0% | 24.5hPa | 0V | 00:00:00 | 00:00:00 | 00:00:00 | |
| SP3WXH-11 | 2026-09-06 00:33:59 | 52.05805 | 22.06051 | 134° | 33km/h | 25412m | 8.5m/s | -48.9°C | 0.9% | 25.0hPa | 0V | 00:00:00 | 00:00:00 | 00:00:00 | |
| SP4MAZ | 2026-09-06 00:33:39 | 52.05897 | 22.05827 | 113° | 38km/h | 25295m | 7.1m/s | -49.0°C | 0.9% | 25.5hPa | 0V | 00:00:00 | 00:00:00 | 00:00:00 | |
| SP3WXH-11 | 2026-09-06 00:33:28 | 52.05924 | 22.05685 | 99° | 33km/h | 25216m | 7.0m/s | -49.7°C | 0.9% | 25.8hPa | 0V | 00:00:00 | 00:00:00 | 00:00:00 | |
| SP4MAZ | 2026-09-06 00:33:18 | 52.05912 | 22.05577 | 58° | 29km/h | 25156m | 7.5m/s | -49.9°C | 0.9% | 26.0hPa | 0V | 00:00:00 | 00:00:00 | 00:00:00 | |
| SP3WXH-11 | 2026-09-06 00:32:57 | 52.05877 | 22.05323 | 74° | 29km/h | 25026m | 4.7m/s | -51.2°C | 1.0% | 26.6hPa | 0V | 00:00:00 | 00:00:00 | 00:00:00 | |
| SP4MAZ | 2026-09-06 00:32:35 | 52.05896 | 22.05146 | 112° | 29km/h | 24897m | 5.9m/s | -51.7°C | 1.1% | 27.1hPa | 0V | 00:00:00 | 00:00:00 | 00:00:00 | |
| SP3WXH-11 | 2026-09-06 00:32:26 | 52.05911 | 22.05008 | 98° | 40km/h | 24838m | 5.2m/s | -52.1°C | 1.1% | 27.4hPa | 0V | 00:00:00 | 00:00:00 | 00:00:00 | |
| SP4MAZ | 2026-09-06 00:32:12 | 52.05917 | 22.04837 | 90° | 33km/h | 24761m | 9.2m/s | -52.3°C | 1.0% | 27.7hPa | 0V | 00:00:00 | 00:00:00 | 00:00:00 | |
| SP3WXH-11 | 2026-09-06 00:31:55 | 52.05890 | 22.04650 | 86° | 24km/h | 24643m | 6.2m/s | -52.7°C | 1.1% | 28.2hPa | 0V | 00:00:00 | 00:00:00 | 00:00:00 | |
| SP4MAZ | 2026-09-06 00:31:41 | 52.05863 | 22.04558 | 63° | 15km/h | 24563m | 7.6m/s | -53.0°C | 1.1% | 28.5hPa | 0V | 00:00:00 | 00:00:00 | 00:00:00 | |
| SP3WXH-11 | 2026-09-06 00:31:24 | 52.05815 | 22.04473 | 26° | 11km/h | 24448m | 7.4m/s | -52.7°C | 1.1% | 29.0hPa | 0V | 00:00:00 | 00:00:00 | 00:00:00 | |
| SP4MAZ | 2026-09-06 00:31:20 | 52.05808 | 22.04467 | 43° | 11km/h | 24431m | 6.7m/s | -52.6°C | 1.1% | 29.1hPa | 0V | 00:00:00 | 00:00:00 | 00:00:00 | |
| SP3WXH-11 | 2026-09-06 00:30:53 | 52.05785 | 22.04449 | 109° | 9km/h | 24255m | 5.9m/s | -52.7°C | 1.1% | 29.9hPa | 0V | 00:00:00 | 00:00:00 | 00:00:00 | |
| SP4MAZ | 2026-09-06 00:30:35 | 52.05768 | 22.04454 | 352° | 7km/h | 24150m | 5.1m/s | -52.3°C | 1.1% | 30.4hPa | 0V | 00:00:00 | 00:00:00 | 00:00:00 | |
| SP3WXH-11 | 2026-09-06 00:30:22 | 52.05767 | 22.04473 | 253° | 7km/h | 24055m | 5.6m/s | -51.8°C | 1.1% | 30.9hPa | 0V | 00:00:00 | 00:00:00 | 00:00:00 | |
| SP4MAZ | 2026-09-06 00:30:13 | 52.05782 | 22.04485 | 239° | 11km/h | 24014m | 5.2m/s | -51.7°C | 1.0% | 31.1hPa | 0V | 00:00:00 | 00:00:00 | 00:00:00 | |
| SP3WXH-11 | 2026-09-06 00:29:51 | 52.05852 | 22.04461 | 171° | 20km/h | 23855m | 4.5m/s | -52.1°C | 1.1% | 31.8hPa | 0V | 00:00:00 | 00:00:00 | 00:00:00 | |
| SP4MAZ | 2026-09-06 00:29:30 | 52.05920 | 22.04398 | 170° | 7km/h | 23749m | 7.4m/s | -52.1°C | 1.1% | 32.4hPa | 0V | 00:00:00 | 00:00:00 | 00:00:00 | |
| SP3WXH-11 | 2026-09-06 00:29:20 | 52.05956 | 22.04356 | 154° | 9km/h | 23670m | 7.8m/s | -52.4°C | 1.1% | 32.8hPa | 0V | 00:00:00 | 00:00:00 | 00:00:00 | |
| SP4MAZ | 2026-09-06 00:29:10 | 52.05981 | 22.04351 | 153° | 26km/h | 23619m | 5.0m/s | -52.7°C | 1.1% | 33.1hPa | 0V | 00:00:00 | 00:00:00 | 00:00:00 | |
| SP3WXH-11 | 2026-09-06 00:28:49 | 52.06056 | 22.04250 | 127° | 22km/h | 23483m | 7.0m/s | -52.8°C | 1.1% | 33.8hPa | 0V | 00:00:00 | 00:00:00 | 00:00:00 | |
| SP4MAZ | 2026-09-06 00:28:29 | 52.06107 | 22.04105 | 115° | 33km/h | 23374m | 7.1m/s | -52.7°C | 1.1% | 34.3hPa | 0V | 00:00:00 | 00:00:00 | 00:00:00 | |
| SP3WXH-11 | 2026-09-06 00:28:18 | 52.06141 | 22.03986 | 94° | 27km/h | 23295m | 6.0m/s | -52.3°C | 1.1% | 34.8hPa | 0V | 00:00:00 | 00:00:00 | 00:00:00 | |
| SP4MAZ | 2026-09-06 00:28:07 | 52.06155 | 22.03893 | 108° | 16km/h | 23243m | 6.1m/s | -52.4°C | 1.1% | 35.1hPa | 0V | 00:00:00 | 00:00:00 | 00:00:00 | |
| SP3WXH-11 | 2026-09-06 00:27:47 | 52.06148 | 22.03757 | 82° | 11km/h | 23111m | 7.2m/s | -52.6°C | 1.1% | 35.8hPa | 0V | 00:00:00 | 00:00:00 | 00:00:00 | |
| SP4MAZ | 2026-09-06 00:27:25 | 52.06179 | 22.03684 | 103° | 7km/h | 22983m | 6.6m/s | -52.6°C | 1.1% | 36.5hPa | 0V | 00:00:00 | 00:00:00 | 00:00:00 | |
| SP3WXH-11 | 2026-09-06 00:27:16 | 52.06202 | 22.03624 | 104° | 15km/h | 22920m | 5.2m/s | -52.8°C | 1.1% | 36.8hPa | 0V | 00:00:00 | 00:00:00 | 00:00:00 | |
| SP4MAZ | 2026-09-06 00:27:05 | 52.06238 | 22.03554 | 129° | 24km/h | 22866m | 6.6m/s | -52.9°C | 1.1% | 37.2hPa | 0V | 00:00:00 | 00:00:00 | 00:00:00 | |
| SP3WXH-11 | 2026-09-06 00:26:45 | 52.06325 | 22.03336 | 101° | 35km/h | 22745m | 4.2m/s | -52.8°C | 1.2% | 37.9hPa | 0V | 00:00:00 | 00:00:00 | 00:00:00 | |
| SP4MAZ | 2026-09-06 00:26:39 | 52.06333 | 22.03276 | 106° | 33km/h | 22724m | 6.8m/s | -52.6°C | 1.2% | 38.0hPa | 0V | 00:00:00 | 00:00:00 | 00:00:00 | |
| SP4MAZ | 2026-09-06 00:26:18 | 52.06381 | 22.03007 | 116° | 31km/h | 22592m | 4.9m/s | -52.7°C | 1.1% | 38.8hPa | 0V | 00:00:00 | 00:00:00 | 00:00:00 | |
| SP3WXH-11 | 2026-09-06 00:26:13 | 52.06399 | 22.02948 | 109° | 31km/h | 22557m | 5.6m/s | -53.1°C | 1.1% | 39.0hPa | 0V | 00:00:00 | 00:00:00 | 00:00:00 | |
| SP3WXH-11 | 2026-09-06 00:25:43 | 52.06393 | 22.02603 | 47° | 13km/h | 22363m | 5.7m/s | -53.6°C | 1.2% | 40.1hPa | 0V | 00:00:00 | 00:00:00 | 00:00:00 | |
| SP4MAZ | 2026-09-06 00:25:37 | 52.06382 | 22.02581 | 47° | 20km/h | 22344m | 4.8m/s | -53.5°C | 1.2% | 40.2hPa | 0V | 00:00:00 | 00:00:00 | 00:00:00 | |
| SP4MAZ | 2026-09-06 00:25:14 | 52.06338 | 22.02494 | 8° | 4km/h | 22207m | 5.7m/s | -52.8°C | 1.1% | 41.2hPa | 0V | 00:00:00 | 00:00:00 | 00:00:00 | |
| SP3WXH-11 | 2026-09-06 00:25:11 | 52.06331 | 22.02484 | 74° | 11km/h | 22183m | 6.8m/s | -53.1°C | 1.2% | 41.3hPa | 0V | 00:00:00 | 00:00:00 | 00:00:00 | |
| SP4MAZ | 2026-09-06 00:24:53 | 52.06368 | 22.02435 | 149° | 13km/h | 22081m | 7.1m/s | -53.2°C | 1.2% | 42.0hPa | 0V | 00:00:00 | 00:00:00 | 00:00:00 | |
| SP3WXH-11 | 2026-09-06 00:24:40 | 52.06389 | 22.02372 | 130° | 11km/h | 21995m | 6.3m/s | -52.9°C | 1.2% | 42.6hPa | 0V | 00:00:00 | 00:00:00 | 00:00:00 | |
| SP4MAZ | 2026-09-06 00:24:31 | 52.06398 | 22.02352 | 201° | 4km/h | 21945m | 4.6m/s | -52.8°C | 1.2% | 42.9hPa | 0V | 00:00:00 | 00:00:00 | 00:00:00 | |
| SP4MAZ | 2026-09-06 00:24:10 | 52.06453 | 22.02347 | 143° | 16km/h | 21811m | 6.9m/s | -52.2°C | 1.1% | 43.8hPa | 0V | 00:00:00 | 00:00:00 | 00:00:00 | |
| SP3WXH-11 | 2026-09-06 00:24:09 | 52.06459 | 22.02343 | 186° | 9km/h | 21796m | 5.1m/s | -52.3°C | 1.1% | 43.9hPa | 0V | 00:00:00 | 00:00:00 | 00:00:00 | |
| SP4MAZ | 2026-09-06 00:23:49 | 52.06568 | 22.02256 | 137° | 29km/h | 21677m | 5.0m/s | -52.6°C | 1.2% | 44.6hPa | 0V | 00:00:00 | 00:00:00 | 00:00:00 | |
| SP3WXH-11 | 2026-09-06 00:23:38 | 52.06626 | 22.02150 | 123° | 40km/h | 21616m | 5.9m/s | -52.3°C | 1.1% | 45.1hPa | 0V | 00:00:00 | 00:00:00 | 00:00:00 | |
| SP4MAZ | 2026-09-06 00:23:29 | 52.06660 | 22.02041 | 104° | 33km/h | 21570m | 4.5m/s | -52.3°C | 1.1% | 45.5hPa | 0V | 00:00:00 | 00:00:00 | 00:00:00 | |
| SP4MAZ | 2026-09-06 00:23:08 | 52.06710 | 22.01735 | 104° | 47km/h | 21448m | 5.4m/s | -52.4°C | 1.2% | 46.3hPa | 0V | 00:00:00 | 00:00:00 | 00:00:00 | |
| SP3WXH-11 | 2026-09-06 00:23:07 | 52.06716 | 22.01696 | 102° | 46km/h | 21437m | 5.3m/s | -52.5°C | 1.1% | 46.3hPa | 0V | 00:00:00 | 00:00:00 | 00:00:00 | |
| SP4MAZ | 2026-09-06 00:22:47 | 52.06726 | 22.01397 | 97° | 35km/h | 21332m | 5.2m/s | -52.4°C | 1.2% | 47.1hPa | 0V | 00:00:00 | 00:00:00 | 00:00:00 | |
| SP3WXH-11 | 2026-09-06 00:22:36 | 52.06753 | 22.01220 | 100° | 29km/h | 21271m | 4.0m/s | -52.7°C | 1.2% | 47.6hPa | 0V | 00:00:00 | 00:00:00 | 00:00:00 | |
| SP4MAZ | 2026-09-06 00:22:26 | 52.06763 | 22.01109 | 104° | 29km/h | 21223m | 4.0m/s | -52.4°C | 1.2% | 48.0hPa | 0V | 00:00:00 | 00:00:00 | 00:00:00 | |
| SP3WXH-11 | 2026-09-06 00:22:05 | 52.06814 | 22.00827 | 108° | 35km/h | 21105m | 4.5m/s | -51.7°C | 1.1% | 48.9hPa | 0V | 00:00:00 | 00:00:00 | 00:00:00 | |
| SP4MAZ | 2026-09-06 00:21:44 | 52.06868 | 22.00571 | 97° | 35km/h | 20994m | 6.2m/s | -51.4°C | 1.1% | 49.7hPa | 0V | 00:00:00 | 00:00:00 | 00:00:00 | |
| SP3WXH-11 | 2026-09-06 00:21:34 | 52.06873 | 22.00420 | 96° | 31km/h | 20937m | 5.9m/s | -51.2°C | 1.1% | 50.1hPa | 0V | 00:00:00 | 00:00:00 | 00:00:00 | |
| SP4MAZ | 2026-09-06 00:21:24 | 52.06886 | 22.00302 | 97° | 26km/h | 20886m | 7.0m/s | -51.1°C | 1.1% | 50.5hPa | 0V | 00:00:00 | 00:00:00 | 00:00:00 | |
| SP3WXH-11 | 2026-09-06 00:21:03 | 52.06934 | 22.00089 | 114° | 26km/h | 20755m | 4.3m/s | -51.4°C | 1.1% | 51.5hPa | 0V | 00:00:00 | 00:00:00 | 00:00:00 | |
| SP4MAZ | 2026-09-06 00:20:37 | 52.06984 | 21.99763 | 94° | 37km/h | 20609m | 5.1m/s | -50.9°C | 1.1% | 52.7hPa | 0V | 00:00:00 | 00:00:00 | 00:00:00 | |
| SP3WXH-11 | 2026-09-06 00:20:32 | 52.06985 | 21.99678 | 86° | 29km/h | 20573m | 6.1m/s | -51.0°C | 1.1% | 53.0hPa | 0V | 00:00:00 | 00:00:00 | 00:00:00 | |
| SP4MAZ | 2026-09-06 00:20:16 | 52.06962 | 21.99496 | 67° | 37km/h | 20482m | 4.5m/s | -51.0°C | 1.1% | 53.7hPa | 0V | 00:00:00 | 00:00:00 | 00:00:00 | |
| SP3WXH-11 | 2026-09-06 00:20:01 | 52.06915 | 21.99324 | 59° | 29km/h | 20392m | 4.8m/s | -51.6°C | 1.1% | 54.5hPa | 0V | 00:00:00 | 00:00:00 | 00:00:00 | |
| SP4MAZ | 2026-09-06 00:19:55 | 52.06902 | 21.99273 | 73° | 26km/h | 20366m | 6.4m/s | -51.7°C | 1.1% | 54.7hPa | 0V | 00:00:00 | 00:00:00 | 00:00:00 | |
| SP4MAZ | 2026-09-06 00:19:34 | 52.06857 | 21.99102 | 96° | 24km/h | 20253m | 6.2m/s | -51.5°C | 1.1% | 55.7hPa | 0V | 00:00:00 | 00:00:00 | 00:00:00 | |
| SP3WXH-11 | 2026-09-06 00:19:30 | 52.06853 | 21.99061 | 66° | 16km/h | 20222m | 3.9m/s | -51.8°C | 1.1% | 55.9hPa | 0V | 00:00:00 | 00:00:00 | 00:00:00 | |
| SP4MAZ | 2026-09-06 00:19:13 | 52.06876 | 21.98895 | 109° | 27km/h | 20137m | 5.6m/s | -51.8°C | 1.1% | 56.6hPa | 0V | 00:00:00 | 00:00:00 | 00:00:00 | |
| SP3WXH-11 | 2026-09-06 00:18:59 | 52.06889 | 21.98740 | 84° | 24km/h | 20052m | 4.5m/s | -52.4°C | 1.2% | 57.4hPa | 0V | 00:00:00 | 00:00:00 | 00:00:00 | |
| SP4MAZ | 2026-09-06 00:18:53 | 52.06886 | 21.98686 | 75° | 29km/h | 20025m | 5.6m/s | -52.4°C | 1.2% | 57.6hPa | 0V | 00:00:00 | 00:00:00 | 00:00:00 | |
| SP4MAZ | 2026-09-06 00:18:32 | 52.06829 | 21.98536 | 44° | 18km/h | 19908m | 5.7m/s | -51.7°C | 1.1% | 58.7hPa | 0V | 00:00:00 | 00:00:00 | 00:00:00 | |
| SP3WXH-11 | 2026-09-06 00:18:28 | 52.06813 | 21.98510 | 46° | 15km/h | 19885m | 5.2m/s | -51.7°C | 1.1% | 58.9hPa | 0V | 00:00:00 | 00:00:00 | 00:00:00 | |
| SP4MAZ | 2026-09-06 00:18:11 | 52.06811 | 21.98434 | 136° | 9km/h | 19801m | 5.2m/s | -51.3°C | 1.1% | 59.7hPa | 0V | 00:00:00 | 00:00:00 | 00:00:00 | |
| SP3WXH-11 | 2026-09-06 00:17:57 | 52.06851 | 21.98346 | 127° | 18km/h | 19715m | 3.9m/s | -50.7°C | 1.1% | 60.5hPa | 0V | 00:00:00 | 00:00:00 | 00:00:00 | |
| SP4MAZ | 2026-09-06 00:17:50 | 52.06872 | 21.98305 | 124° | 26km/h | 19686m | 4.5m/s | -50.5°C | 1.1% | 60.7hPa | 0V | 00:00:00 | 00:00:00 | 00:00:00 | |
| SP4MAZ | 2026-09-06 00:17:30 | 52.06967 | 21.98143 | 132° | 31km/h | 19584m | 5.7m/s | -50.8°C | 1.1% | 61.7hPa | 0V | 00:00:00 | 00:00:00 | 00:00:00 | |
| SP3WXH-11 | 2026-09-06 00:17:26 | 52.06992 | 21.98095 | 136° | 35km/h | 19559m | 3.8m/s | -51.0°C | 1.1% | 62.0hPa | 0V | 00:00:00 | 00:00:00 | 00:00:00 | |
| SP4MAZ | 2026-09-06 00:17:09 | 52.07093 | 21.97848 | 121° | 49km/h | 19468m | 3.6m/s | -51.8°C | 1.1% | 62.8hPa | 0V | 00:00:00 | 00:00:00 | 00:00:00 | |
| SP3WXH-11 | 2026-09-06 00:16:55 | 52.07162 | 21.97575 | 114° | 44km/h | 19387m | 5.7m/s | -51.4°C | 1.1% | 63.6hPa | 0V | 00:00:00 | 00:00:00 | 00:00:00 | |
| SP4MAZ | 2026-09-06 00:16:48 | 52.07185 | 21.97488 | 111° | 46km/h | 19358m | 3.8m/s | -51.3°C | 1.2% | 63.8hPa | 0V | 00:00:00 | 00:00:00 | 00:00:00 | |
| SP4MAZ | 2026-09-06 00:16:27 | 52.07257 | 21.97185 | 109° | 35km/h | 19248m | 4.2m/s | -51.4°C | 1.1% | 64.9hPa | 0V | 00:00:00 | 00:00:00 | 00:00:00 | |
| SP3WXH-11 | 2026-09-06 00:16:24 | 52.07270 | 21.97123 | 109° | 29km/h | 19222m | 3.6m/s | -51.4°C | 1.1% | 65.2hPa | 0V | 00:00:00 | 00:00:00 | 00:00:00 | |
| SP4MAZ | 2026-09-06 00:16:06 | 52.07318 | 21.96960 | 110° | 31km/h | 19136m | 3.8m/s | -51.2°C | 1.1% | 66.1hPa | 0V | 00:00:00 | 00:00:00 | 00:00:00 | |
| SP3WXH-11 | 2026-09-06 00:15:53 | 52.07384 | 21.96825 | 137° | 29km/h | 19065m | 4.0m/s | -51.1°C | 1.1% | 66.9hPa | 0V | 00:00:00 | 00:00:00 | 00:00:00 | |
| SP4MAZ | 2026-09-06 00:15:45 | 52.07417 | 21.96766 | 128° | 37km/h | 19025m | 5.8m/s | -50.9°C | 1.1% | 67.2hPa | 0V | 00:00:00 | 00:00:00 | 00:00:00 | |
| SP4MAZ | 2026-09-06 00:15:24 | 52.07532 | 21.96483 | 127° | 42km/h | 18910m | 4.3m/s | -50.5°C | 1.1% | 68.4hPa | 0V | 00:00:00 | 00:00:00 | 00:00:00 | |
| SP3WXH-11 | 2026-09-06 00:15:22 | 52.07557 | 21.96418 | 118° | 46km/h | 18892m | 4.6m/s | -50.4°C | 1.1% | 68.6hPa | 0V | 00:00:00 | 00:00:00 | 00:00:00 | |
| SP4MAZ | 2026-09-06 00:15:03 | 52.07625 | 21.96114 | 109° | 47km/h | 18798m | 4.6m/s | -50.0°C | 1.1% | 69.6hPa | 0V | 00:00:00 | 00:00:00 | 00:00:00 | |
| SP3WXH-11 | 2026-09-06 00:14:51 | 52.07675 | 21.95830 | 101° | 53km/h | 18730m | 3.2m/s | -50.2°C | 1.1% | 70.4hPa | 0V | 00:00:00 | 00:00:00 | 00:00:00 | |
| SP4MAZ | 2026-09-06 00:14:42 | 52.07690 | 21.95686 | 102° | 53km/h | 18692m | 5.0m/s | -50.5°C | 1.1% | 70.8hPa | 0V | 00:00:00 | 00:00:00 | 00:00:00 | |
| SP4MAZ | 2026-09-06 00:14:21 | 52.07708 | 21.95286 | 89° | 46km/h | 18574m | 4.6m/s | -51.2°C | 1.1% | 72.0hPa | 0V | 00:00:00 | 00:00:00 | 00:00:00 | |
| SP3WXH-11 | 2026-09-06 00:14:20 | 52.07706 | 21.95231 | 85° | 46km/h | 18558m | 7.0m/s | -51.7°C | 1.2% | 72.2hPa | 0V | 00:00:00 | 00:00:00 | 00:00:00 | |
| SP3WXH-11 | 2026-09-06 00:13:49 | 52.07701 | 21.94714 | 96° | 38km/h | 18385m | 7.5m/s | -50.6°C | 1.1% | 74.1hPa | 0V | 00:00:00 | 00:00:00 | 00:00:00 | |
| SP4MAZ | 2026-09-06 00:13:41 | 52.07712 | 21.94602 | 102° | 37km/h | 18343m | 4.0m/s | -50.7°C | 1.2% | 74.6hPa | 0V | 00:00:00 | 00:00:00 | 00:00:00 | |
| SP4MAZ | 2026-09-06 00:13:19 | 52.07789 | 21.94244 | 103° | 44km/h | 18230m | 5.0m/s | -50.1°C | 1.1% | 75.9hPa | 0V | 00:00:00 | 00:00:00 | 00:00:00 | |
| SP3WXH-11 | 2026-09-06 00:13:18 | 52.07796 | 21.94194 | 102° | 40km/h | 18214m | 3.9m/s | -50.2°C | 1.1% | 76.1hPa | 0V | 00:00:00 | 00:00:00 | 00:00:00 | |
| SP3WXH-11 | 2026-09-06 00:12:47 | 52.07843 | 21.93514 | 91° | 58km/h | 18043m | 4.8m/s | -50.7°C | 1.2% | 78.1hPa | 0V | 00:00:00 | 00:00:00 | 00:00:00 | |
| SP4MAZ | 2026-09-06 00:12:36 | 52.07839 | 21.93286 | 86° | 64km/h | 17995m | 6.1m/s | -50.6°C | 1.1% | 78.6hPa | 0V | 00:00:00 | 00:00:00 | 00:00:00 | |
| SP4MAZ | 2026-09-06 00:12:15 | 52.07825 | 21.92823 | 91° | 49km/h | 17886m | 4.4m/s | -51.2°C | 1.2% | 80.1hPa | 0V | 00:00:00 | 00:00:00 | 00:00:00 | |
| SP4MAZ | 2026-09-06 00:11:53 | 52.07840 | 21.92376 | 97° | 46km/h | 17768m | 5.6m/s | -51.6°C | 1.2% | 81.5hPa | 0V | 00:00:00 | 00:00:00 | 00:00:00 | |
| SP3WXH-11 | 2026-09-06 00:11:44 | 52.07849 | 21.92221 | 102° | 40km/h | 17713m | 3.7m/s | -51.6°C | 1.3% | 82.2hPa | 0V | 00:00:00 | 00:00:00 | 00:00:00 | |
| SP4MAZ | 2026-09-06 00:11:32 | 52.07865 | 21.92035 | 99° | 42km/h | 17657m | 5.1m/s | -51.5°C | 1.3% | 82.9hPa | 0V | 00:00:00 | 00:00:00 | 00:00:00 | |
| SP3WXH-11 | 2026-09-06 00:11:14 | 52.07888 | 21.91747 | 105° | 40km/h | 17547m | 2.4m/s | -50.7°C | 1.2% | 84.3hPa | 0V | 00:00:00 | 00:00:00 | 00:00:00 | |
| SP4MAZ | 2026-09-06 00:11:12 | 52.07888 | 21.91747 | 106° | 40km/h | 17548m | 2.4m/s | -50.7°C | 1.2% | 84.3hPa | 0V | 00:00:00 | 00:00:00 | 00:00:00 | |
| SP4MAZ | 2026-09-06 00:10:50 | 52.07965 | 21.91439 | 132° | 40km/h | 17410m | 4.7m/s | -50.2°C | 1.2% | 86.1hPa | 0V | 00:00:00 | 00:00:00 | 00:00:00 | |
| SP3WXH-11 | 2026-09-06 00:10:42 | 52.08025 | 21.91312 | 120° | 51km/h | 17356m | 3.1m/s | -49.9°C | 1.2% | 86.8hPa | 0V | 00:00:00 | 00:00:00 | 00:00:00 | |
| SP4MAZ | 2026-09-06 00:10:24 | 52.08151 | 21.91025 | 122° | 49km/h | 17268m | 4.8m/s | -49.3°C | 1.1% | 88.0hPa | 0V | 00:00:00 | 00:00:00 | 00:00:00 | |
| SP3WXH-11 | 2026-09-06 00:10:11 | 52.08252 | 21.90760 | 117° | 58km/h | 17195m | 3.9m/s | -49.4°C | 1.1% | 89.0hPa | 0V | 00:00:00 | 00:00:00 | 00:00:00 | |
| SP4MAZ | 2026-09-06 00:10:04 | 52.08304 | 21.90625 | 127° | 68km/h | 17162m | 5.4m/s | -49.3°C | 1.1% | 89.4hPa | 0V | 00:00:00 | 00:00:00 | 00:00:00 | |
| SP4MAZ | 2026-09-06 00:09:43 | 52.08490 | 21.90214 | 123° | 57km/h | 17045m | 4.2m/s | -48.6°C | 1.1% | 90.9hPa | 0V | 00:00:00 | 00:00:00 | 00:00:00 | |
| SP3WXH-11 | 2026-09-06 00:09:40 | 52.08521 | 21.90132 | 123° | 60km/h | 17028m | 5.9m/s | -48.5°C | 1.1% | 91.2hPa | 0V | 00:00:00 | 00:00:00 | 00:00:00 | |
| SP4MAZ | 2026-09-06 00:09:20 | 52.08671 | 21.89772 | 125° | 58km/h | 16932m | 6.2m/s | -48.7°C | 1.0% | 92.6hPa | 0V | 00:00:00 | 00:00:00 | 00:00:00 | |
| SP3WXH-11 | 2026-09-06 00:09:09 | 52.08771 | 21.89489 | 117° | 66km/h | 16868m | 4.6m/s | -49.6°C | 1.1% | 93.4hPa | 0V | 00:00:00 | 00:00:00 | 00:00:00 | |
| SP4MAZ | 2026-09-06 00:08:39 | 52.08969 | 21.88800 | 116° | 60km/h | 16727m | 5.9m/s | -49.9°C | 1.1% | 95.6hPa | 0V | 00:00:00 | 00:00:00 | 00:00:00 | |
| SP3WXH-11 | 2026-09-06 00:08:38 | 52.08982 | 21.88756 | 116° | 57km/h | 16716m | 4.3m/s | -50.0°C | 1.1% | 95.8hPa | 0V | 00:00:00 | 00:00:00 | 00:00:00 | |
| SP3WXH-11 | 2026-09-06 00:08:07 | 52.09087 | 21.88073 | 105° | 53km/h | 16559m | 5.2m/s | -50.7°C | 1.2% | 98.1hPa | 0V | 00:00:00 | 00:00:00 | 00:00:00 | |
| SP4MAZ | 2026-09-06 00:08:00 | 52.09109 | 21.87954 | 104° | 49km/h | 16531m | 4.2m/s | -50.7°C | 1.2% | 98.5hPa | 0V | 00:00:00 | 00:00:00 | 00:00:00 | |
| SP4MAZ | 2026-09-06 00:07:40 | 52.09167 | 21.87502 | 108° | 51km/h | 16428m | 4.7m/s | -50.4°C | 1.2% | 100.1hPa | 0V | 00:00:00 | 00:00:00 | 00:00:00 | |
| SP3WXH-11 | 2026-09-06 00:07:36 | 52.09188 | 21.87411 | 111° | 46km/h | 16404m | 4.9m/s | -50.8°C | 1.2% | 100.5hPa | 0V | 00:00:00 | 00:00:00 | 00:00:00 | |
| SP4MAZ | 2026-09-06 00:07:19 | 52.09256 | 21.87077 | 109° | 57km/h | 16326m | 5.6m/s | -50.7°C | 1.3% | 101.6hPa | 0V | 00:00:00 | 00:00:00 | 00:00:00 | |
| SP3WXH-11 | 2026-09-06 00:07:05 | 52.09326 | 21.86721 | 106° | 62km/h | 16245m | 5.0m/s | -50.5°C | 1.2% | 102.9hPa | 0V | 00:00:00 | 00:00:00 | 00:00:00 | |
| SP4MAZ | 2026-09-06 00:06:58 | 52.09352 | 21.86571 | 111° | 62km/h | 16216m | 4.6m/s | -50.4°C | 1.2% | 103.4hPa | 0V | 00:00:00 | 00:00:00 | 00:00:00 | |
| SP4MAZ | 2026-09-06 00:06:38 | 52.09434 | 21.86023 | 94° | 68km/h | 16091m | 7.1m/s | -51.1°C | 1.3% | 105.3hPa | 0V | 00:00:00 | 00:00:00 | 00:00:00 | |
| SP3WXH-11 | 2026-09-06 00:06:34 | 52.09445 | 21.85883 | 104° | 69km/h | 16064m | 3.7m/s | -51.1°C | 1.3% | 105.7hPa | 0V | 00:00:00 | 00:00:00 | 00:00:00 | |
| SP4MAZ | 2026-09-06 00:06:17 | 52.09492 | 21.85431 | 99° | 60km/h | 15966m | 4.3m/s | -51.0°C | 1.3% | 107.2hPa | 0V | 00:00:00 | 00:00:00 | 00:00:00 | |
| SP3WXH-11 | 2026-09-06 00:06:03 | 52.09536 | 21.85060 | 101° | 60km/h | 15897m | 3.7m/s | -50.5°C | 1.3% | 108.5hPa | 0V | 00:00:00 | 00:00:00 | 00:00:00 | |
| SP4MAZ | 2026-09-06 00:05:57 | 52.09552 | 21.84908 | 100° | 58km/h | 15868m | 3.9m/s | -50.3°C | 1.3% | 109.0hPa | 0V | 00:00:00 | 00:00:00 | 00:00:00 | |
| SP4MAZ | 2026-09-06 00:05:33 | 52.09623 | 21.84381 | 107° | 64km/h | 15749m | 5.7m/s | -49.3°C | 1.2% | 111.0hPa | 0V | 00:00:00 | 00:00:00 | 00:00:00 | |
| SP3WXH-11 | 2026-09-06 00:05:32 | 52.09630 | 21.84333 | 106° | 57km/h | 15738m | 5.3m/s | -49.3°C | 1.2% | 111.2hPa | 0V | 00:00:00 | 00:00:00 | 00:00:00 | |
| SP4MAZ | 2026-09-06 00:04:48 | 52.09854 | 21.83440 | 128° | 64km/h | 15505m | 4.8m/s | -49.2°C | 1.3% | 115.2hPa | 0V | 00:00:00 | 00:00:00 | 00:00:00 | |
| SP3WXH-11 | 2026-09-06 00:04:31 | 52.09991 | 21.83004 | 111° | 68km/h | 15413m | 3.5m/s | -49.0°C | 1.2% | 116.9hPa | 0V | 00:00:00 | 00:00:00 | 00:00:00 | |
| SP4MAZ | 2026-09-06 00:04:28 | 52.10002 | 21.82956 | 118° | 69km/h | 15402m | 3.2m/s | -49.1°C | 1.2% | 117.1hPa | 0V | 00:00:00 | 00:00:00 | 00:00:00 | |
| SP4MAZ | 2026-09-06 00:04:06 | 52.10136 | 21.82378 | 110° | 64km/h | 15298m | 6.4m/s | -49.1°C | 1.2% | 119.0hPa | 0V | 00:00:00 | 00:00:00 | 00:00:00 | |
| SP3WXH-11 | 2026-09-06 00:03:59 | 52.10184 | 21.82204 | 112° | 68km/h | 15264m | 2.7m/s | -48.9°C | 1.2% | 119.6hPa | 0V | 00:00:00 | 00:00:00 | 00:00:00 | |
| SP4MAZ | 2026-09-06 00:03:45 | 52.10283 | 21.81880 | 126° | 68km/h | 15189m | 4.4m/s | -49.2°C | 1.2% | 121.0hPa | 0V | 00:00:00 | 00:00:00 | 00:00:00 | |
| SP3WXH-11 | 2026-09-06 00:03:28 | 52.10408 | 21.81474 | 119° | 53km/h | 15099m | 2.6m/s | -48.6°C | 1.2% | 122.5hPa | 0V | 00:00:00 | 00:00:00 | 00:00:00 | |
| SP4MAZ | 2026-09-06 00:03:25 | 52.10440 | 21.81387 | 117° | 71km/h | 15082m | 5.1m/s | -48.5°C | 1.2% | 122.9hPa | 0V | 00:00:00 | 00:00:00 | 00:00:00 | |
| SP4MAZ | 2026-09-06 00:03:11 | 52.10550 | 21.80816 | 107° | 75km/h | 14968m | 5.4m/s | -48.5°C | 1.2% | 125.0hPa | 0V | 00:00:00 | 00:00:00 | 00:00:00 | |
| SP3WXH-11 | 2026-09-06 00:03:06 | 52.10592 | 21.80604 | 108° | 78km/h | 14933m | 4.0m/s | -48.5°C | 1.2% | 125.7hPa | 0V | 00:00:00 | 00:00:00 | 00:00:00 | |
| SP4MAZ | 2026-09-06 00:02:43 | 52.10709 | 21.79994 | 109° | 77km/h | 14841m | 5.1m/s | -48.3°C | 1.2% | 127.5hPa | 0V | 00:00:00 | 00:00:00 | 00:00:00 | |
| SP4MAZ | 2026-09-06 00:02:17 | 52.10818 | 21.79416 | 112° | 75km/h | 14740m | 5.8m/s | -48.5°C | 1.2% | 129.5hPa | 0V | 00:00:00 | 00:00:00 | 00:00:00 | |
| SP3WXH-11 | 2026-09-06 00:01:58 | 52.11001 | 21.78755 | 117° | 71km/h | 14624m | 4.2m/s | -49.1°C | 1.3% | 131.7hPa | 0V | 00:00:00 | 00:00:00 | 00:00:00 | |
| SP4MAZ | 2026-09-06 00:01:35 | 52.11188 | 21.78199 | 119° | 84km/h | 14529m | 5.7m/s | -48.7°C | 1.3% | 133.6hPa | 0V | 00:00:00 | 00:00:00 | 00:00:00 | |
| SP3WXH-11 | 2026-09-06 00:01:26 | 52.11318 | 21.77810 | 119° | 89km/h | 14466m | 3.9m/s | -48.4°C | 1.3% | 134.9hPa | 0V | 00:00:00 | 00:00:00 | 00:00:00 | |
| SP4MAZ | 2026-09-06 00:01:17 | 52.11405 | 21.77540 | 120° | 93km/h | 14426m | 5.1m/s | -48.5°C | 1.3% | 135.7hPa | 0V | 00:00:00 | 00:00:00 | 00:00:00 | |
| SP4MAZ | 2026-09-06 00:00:54 | 52.11617 | 21.76806 | 111° | 95km/h | 14320m | 6.0m/s | -49.1°C | 1.3% | 138.0hPa | 0V | 00:00:00 | 00:00:00 | 00:00:00 | |
| SP3WXH-11 | 2026-09-06 00:00:53 | 52.11632 | 21.76736 | 108° | 89km/h | 14309m | 5.2m/s | -49.3°C | 1.4% | 138.2hPa | 0V | 00:00:00 | 00:00:00 | 00:00:00 | |
| SP4MAZ | 2026-09-06 00:00:36 | 52.11759 | 21.76096 | 107° | 86km/h | 14218m | 5.2m/s | -48.9°C | 1.3% | 140.1hPa | 0V | 00:00:00 | 00:00:00 | 00:00:00 | |
| SP3WXH-11 | 2026-09-06 00:00:22 | 52.11847 | 21.75645 | 112° | 84km/h | 14154m | 4.9m/s | -48.3°C | 1.3% | 141.6hPa | 0V | 00:00:00 | 00:00:00 | 00:00:00 | |
| SP4MAZ | 2026-09-06 00:00:13 | 52.11902 | 21.75413 | 109° | 89km/h | 14118m | 5.9m/s | -48.1°C | 1.3% | 142.3hPa | 0V | 00:00:00 | 00:00:00 | 00:00:00 | |
| SP4MAZ | 2026-09-05 23:59:52 | 52.12086 | 21.74730 | 120° | 84km/h | 14013m | 4.2m/s | -47.9°C | 1.3% | 144.6hPa | 0V | 00:00:00 | 00:00:00 | 00:00:00 | |
| SP3WXH-11 | 2026-09-05 23:59:51 | 52.12116 | 21.74635 | 115° | 89km/h | 13999m | 4.3m/s | -47.9°C | 1.3% | 144.9hPa | 0V | 00:00:00 | 00:00:00 | 00:00:00 | |
| SP4MAZ | 2026-09-05 23:59:32 | 52.12287 | 21.74084 | 118° | 82km/h | 13908m | 4.1m/s | -47.8°C | 1.3% | 146.9hPa | 0V | 00:00:00 | 00:00:00 | 00:00:00 | |
| SP3WXH-11 | 2026-09-05 23:59:20 | 52.12412 | 21.73686 | 115° | 80km/h | 13838m | 5.0m/s | -48.1°C | 1.3% | 148.4hPa | 0V | 00:00:00 | 00:00:00 | 00:00:00 | |
| SP4MAZ | 2026-09-05 23:59:08 | 52.12513 | 21.73363 | 116° | 91km/h | 13787m | 5.6m/s | -48.0°C | 1.3% | 149.5hPa | 0V | 00:00:00 | 00:00:00 | 00:00:00 | |
| SP3WXH-11 | 2026-09-05 23:58:49 | 52.12734 | 21.72651 | 115° | 88km/h | 13689m | 4.5m/s | -47.8°C | 1.3% | 151.8hPa | 0V | 00:00:00 | 00:00:00 | 00:00:00 | |
| SP4MAZ | 2026-09-05 23:58:47 | 52.12734 | 21.72651 | 117° | 89km/h | 13689m | 4.5m/s | -47.8°C | 1.3% | 151.8hPa | 0V | 00:00:00 | 00:00:00 | 00:00:00 | |
| SP4MAZ | 2026-09-05 23:58:26 | 52.12966 | 21.71922 | 121° | 102km/h | 13587m | 4.5m/s | -47.9°C | 1.3% | 154.2hPa | 0V | 00:00:00 | 00:00:00 | 00:00:00 | |
| SP3WXH-11 | 2026-09-05 23:58:18 | 52.13094 | 21.71577 | 122° | 99km/h | 13544m | 4.9m/s | -47.6°C | 1.3% | 155.2hPa | 0V | 00:00:00 | 00:00:00 | 00:00:00 | |
| SP4MAZ | 2026-09-05 23:58:06 | 52.13214 | 21.71233 | 116° | 95km/h | 13501m | 4.1m/s | -47.4°C | 1.3% | 156.3hPa | 0V | 00:00:00 | 00:00:00 | 00:00:00 | |
| SP3WXH-11 | 2026-09-05 23:57:47 | 52.13422 | 21.70502 | 113° | 93km/h | 13405m | 4.3m/s | -47.2°C | 1.3% | 158.6hPa | 0V | 00:00:00 | 00:00:00 | 00:00:00 | |
| SP4MAZ | 2026-09-05 23:57:46 | 52.13413 | 21.70538 | 114° | 93km/h | 13410m | 5.0m/s | -47.2°C | 1.3% | 158.4hPa | 0V | 00:00:00 | 00:00:00 | 00:00:00 | |
| SP4MAZ | 2026-09-05 23:57:26 | 52.13636 | 21.69803 | 120° | 91km/h | 13314m | 6.1m/s | -47.8°C | 1.4% | 160.8hPa | 0V | 00:00:00 | 00:00:00 | 00:00:00 | |
| SP3WXH-11 | 2026-09-05 23:57:16 | 52.13757 | 21.69425 | 118° | 93km/h | 13263m | 5.3m/s | -47.6°C | 1.4% | 162.0hPa | 0V | 00:00:00 | 00:00:00 | 00:00:00 | |
| SP4MAZ | 2026-09-05 23:57:05 | 52.13849 | 21.69125 | 114° | 88km/h | 13217m | 6.0m/s | -47.4°C | 1.4% | 163.1hPa | 0V | 00:00:00 | 00:00:00 | 00:00:00 | |
| SP4MAZ | 2026-09-05 23:56:44 | 52.14080 | 21.68433 | 121° | 97km/h | 13115m | 3.7m/s | -47.3°C | 1.4% | 165.6hPa | 0V | 00:00:00 | 00:00:00 | 00:00:00 | |
| SP4MAZ | 2026-09-05 23:56:23 | 52.14349 | 21.67730 | 123° | 97km/h | 13019m | 6.4m/s | -47.1°C | 1.4% | 168.1hPa | 0V | 00:00:00 | 00:00:00 | 00:00:00 | |
| SP3WXH-11 | 2026-09-05 23:56:13 | 52.14509 | 21.67345 | 121° | 102km/h | 12966m | 4.6m/s | -46.8°C | 1.4% | 169.5hPa | 0V | 00:00:00 | 00:00:00 | 00:00:00 | |
| SP4MAZ | 2026-09-05 23:56:02 | 52.14645 | 21.66992 | 125° | 110km/h | 12919m | 3.6m/s | -46.9°C | 1.4% | 170.7hPa | 0V | 00:00:00 | 00:00:00 | 00:00:00 | |
| SP3WXH-11 | 2026-09-05 23:55:42 | 52.14935 | 21.66217 | 119° | 104km/h | 12817m | 4.8m/s | -46.8°C | 1.5% | 173.3hPa | 0V | 00:00:00 | 00:00:00 | 00:00:00 | |
| SP4MAZ | 2026-09-05 23:55:41 | 52.14935 | 21.66216 | 120° | 104km/h | 12818m | 4.8m/s | -46.8°C | 1.5% | 173.3hPa | 0V | 00:00:00 | 00:00:00 | 00:00:00 | |
| SP3WXH-11 | 2026-09-05 23:55:11 | 52.15364 | 21.65059 | 122° | 108km/h | 12660m | 6.2m/s | -46.3°C | 1.5% | 177.3hPa | 0V | 00:00:00 | 00:00:00 | 00:00:00 | |
| SP4MAZ | 2026-09-05 23:55:00 | 52.15504 | 21.64674 | 119° | 102km/h | 12618m | 4.0m/s | -46.4°C | 1.5% | 178.6hPa | 0V | 00:00:00 | 00:00:00 | 00:00:00 | |
| SP3WXH-11 | 2026-09-05 23:54:40 | 52.15787 | 21.63895 | 121° | 102km/h | 12512m | 3.5m/s | -46.0°C | 1.6% | 181.3hPa | 0V | 00:00:00 | 00:00:00 | 00:00:00 | |
| SP4MAZ | 2026-09-05 23:54:39 | 52.15787 | 21.63894 | 123° | 102km/h | 12513m | 3.5m/s | -46.0°C | 1.6% | 181.3hPa | 0V | 00:00:00 | 00:00:00 | 00:00:00 | |
| SP4MAZ | 2026-09-05 23:54:19 | 52.16076 | 21.63103 | 121° | 113km/h | 12413m | 4.8m/s | -46.1°C | 1.6% | 184.1hPa | 0V | 00:00:00 | 00:00:00 | 00:00:00 | |
| SP3WXH-11 | 2026-09-05 23:54:09 | 52.16213 | 21.62707 | 119° | 108km/h | 12368m | 6.2m/s | -45.8°C | 1.5% | 185.4hPa | 0V | 00:00:00 | 00:00:00 | 00:00:00 | |
| SP4MAZ | 2026-09-05 23:53:57 | 52.16362 | 21.62283 | 125° | 113km/h | 12316m | 3.8m/s | -45.6°C | 1.5% | 186.8hPa | 0V | 00:00:00 | 00:00:00 | 00:00:00 | |
| SP3WXH-11 | 2026-09-05 23:53:38 | 52.16631 | 21.61495 | 119° | 108km/h | 12218m | 4.1m/s | -45.4°C | -1.0% | 189.6hPa | 0V | 00:00:00 | 00:00:00 | 00:00:00 | |
| SP4MAZ | 2026-09-05 23:53:36 | 52.16644 | 21.61456 | 121° | 108km/h | 12213m | 6.6m/s | -45.3°C | 1.4% | 189.7hPa | 0V | 00:00:00 | 00:00:00 | 00:00:00 | |
| SP4MAZ | 2026-09-05 23:53:17 | 52.16930 | 21.60673 | 124° | 113km/h | 12116m | 5.1m/s | -45.2°C | 1.5% | 192.4hPa | 0V | 00:00:00 | 00:00:00 | 00:00:00 | |
| SP3WXH-11 | 2026-09-05 23:53:07 | 52.17087 | 21.60267 | 119° | 115km/h | 12069m | 5.1m/s | 0°C | -1.0% | -1.0hPa | 0V | 00:00:00 | 00:00:00 | 00:00:00 | |
| SP4MAZ | 2026-09-05 23:52:55 | 52.17237 | 21.59809 | 119° | 120km/h | 12019m | 3.5m/s | -45.2°C | 1.5% | 195.3hPa | 0V | 00:00:00 | 00:00:00 | 00:00:00 | |
| SP4MAZ | 2026-09-05 23:52:34 | 52.17533 | 21.58937 | 121° | 115km/h | 11917m | 4.3m/s | -45.0°C | 1.5% | 198.1hPa | 0V | 00:00:00 | 00:00:00 | 00:00:00 | |
| SP4MAZ | 2026-09-05 23:52:13 | 52.17812 | 21.58037 | 115° | 113km/h | 11823m | 4.3m/s | -44.9°C | 1.5% | 201.1hPa | 0V | 00:00:00 | 00:00:00 | 00:00:00 | |
| SP4MAZ | 2026-09-05 23:51:52 | 52.18094 | 21.57156 | 115° | 115km/h | 11709m | 5.3m/s | -45.1°C | 1.6% | 204.5hPa | 0V | 00:00:00 | 00:00:00 | 00:00:00 | |
| SP4MAZ | 2026-09-05 23:51:32 | 52.18371 | 21.56325 | 124° | 108km/h | 11597m | 4.4m/s | -45.3°C | 1.8% | 208.0hPa | 0V | 00:00:00 | 00:00:00 | 00:00:00 | |
| SP4MAZ | 2026-09-05 23:51:11 | 52.18692 | 21.55507 | 125° | 115km/h | 11476m | 3.8m/s | -45.4°C | 2.0% | 211.7hPa | 0V | 00:00:00 | 00:00:00 | 00:00:00 | |
| SP4MAZ | 2026-09-05 23:50:49 | 52.19034 | 21.54592 | 124° | 106km/h | 11357m | 5.9m/s | -45.0°C | 1.9% | 215.6hPa | 0V | 00:00:00 | 00:00:00 | 00:00:00 | |
| SP4MAZ | 2026-09-05 23:50:27 | 52.19368 | 21.53704 | 123° | 115km/h | 11241m | 6.8m/s | -45.2°C | 2.3% | 219.5hPa | 0V | 00:00:00 | 00:00:00 | 00:00:00 | |
| SP4MAZ | 2026-09-05 23:50:07 | 52.19669 | 21.52890 | 123° | 117km/h | 11127m | 6.7m/s | -45.6°C | 2.5% | 223.2hPa | 0V | 00:00:00 | 00:00:00 | 00:00:00 | |
| SP4MAZ | 2026-09-05 23:49:47 | 52.19970 | 21.52102 | 125° | 119km/h | 11015m | 7.6m/s | -45.0°C | 2.5% | 226.8hPa | 0V | 00:00:00 | 00:00:00 | 00:00:00 | |
| SP4MAZ | 2026-09-05 23:49:26 | 52.20325 | 21.51248 | 123° | 113km/h | 10895m | 5.5m/s | -44.9°C | 2.8% | 231.1hPa | 0V | 00:00:00 | 00:00:00 | 00:00:00 | |
| SP4MAZ | 2026-09-05 23:49:06 | 52.20661 | 21.50488 | 130° | 115km/h | 10778m | 5.3m/s | -45.1°C | 3.6% | 235.1hPa | 0V | 00:00:00 | 00:00:00 | 00:00:00 | |
| SP4MAZ | 2026-09-05 23:48:46 | 52.21034 | 21.49745 | 131° | 110km/h | 10666m | 4.8m/s | -45.8°C | 4.3% | 239.2hPa | 0V | 00:00:00 | 00:00:00 | 00:00:00 | |
| SP4MAZ | 2026-09-05 23:48:25 | 52.21375 | 21.48997 | 125° | 110km/h | 10540m | 7.2m/s | -45.4°C | 4.2% | 243.7hPa | 0V | 00:00:00 | 00:00:00 | 00:00:00 | |
| SP4MAZ | 2026-09-05 23:48:04 | 52.21686 | 21.48164 | 121° | 117km/h | 10407m | 5.2m/s | 0°C | 0% | 248.5hPa | 0V | 00:00:00 | 00:00:00 | 00:00:00 | |
| SP4MAZ | 2026-09-05 23:47:42 | 52.22006 | 21.47299 | 123° | 113km/h | 10276m | 6.0m/s | 0°C | 0% | 253.3hPa | 0V | 00:00:00 | 00:00:00 | 00:00:00 | |
| SP4MAZ | 2026-09-05 23:47:22 | 52.22298 | 21.46539 | 117° | 115km/h | 10156m | 3.5m/s | 0°C | 0% | 258.0hPa | 0V | 00:00:00 | 00:00:00 | 00:00:00 | |
| SP4MAZ | 2026-09-05 23:47:01 | 52.22596 | 21.45713 | 120° | 106km/h | 10029m | 5.0m/s | 0°C | 0% | 262.9hPa | 0V | 00:00:00 | 00:00:00 | 00:00:00 | |
| SP4MAZ | 2026-09-05 23:46:40 | 52.22866 | 21.44934 | 119° | 102km/h | 9902m | 4.6m/s | 0°C | 0% | 268.0hPa | 0V | 00:00:00 | 00:00:00 | 00:00:00 | |
| SP4MAZ | 2026-09-05 23:45:57 | 52.23426 | 21.43311 | 118° | 102km/h | 9655m | 4.4m/s | 0°C | 0% | 278.0hPa | 0V | 00:00:00 | 00:00:00 | 00:00:00 | |
| SP4MAZ | 2026-09-05 23:45:34 | 52.23717 | 21.42510 | 122° | 108km/h | 9521m | 5.3m/s | 0°C | 0% | 283.8hPa | 0V | 00:00:00 | 00:00:00 | 00:00:00 | |
| SP4MAZ | 2026-09-05 23:45:13 | 52.24036 | 21.41705 | 123° | 110km/h | 9407m | 7.5m/s | 0°C | 0% | 288.8hPa | 0V | 00:00:00 | 00:00:00 | 00:00:00 | |
| SP4MAZ | 2026-09-05 23:44:53 | 52.24300 | 21.40912 | 117° | 111km/h | 9289m | 7.4m/s | 0°C | 0% | 293.7hPa | 0V | 00:00:00 | 00:00:00 | 00:00:00 | |
| SP4MAZ | 2026-09-05 23:44:32 | 52.24574 | 21.40102 | 114° | 104km/h | 9181m | 4.2m/s | 0°C | 0% | 298.6hPa | 0V | 00:00:00 | 00:00:00 | 00:00:00 | |
| SP4MAZ | 2026-09-05 23:44:11 | 52.24844 | 21.39302 | 122° | 100km/h | 9049m | 3.9m/s | 0°C | 0% | 304.0hPa | 0V | 00:00:00 | 00:00:00 | 00:00:00 | |
| SP4MAZ | 2026-09-05 23:43:50 | 52.25086 | 21.38529 | 118° | 110km/h | 8950m | 3.4m/s | 0°C | 0% | 309.1hPa | 0V | 00:00:00 | 00:00:00 | 00:00:00 | |
| SP4MAZ | 2026-09-05 23:43:29 | 52.25353 | 21.37730 | 116° | 110km/h | 8837m | 3.8m/s | 0°C | 0% | 314.3hPa | 0V | 00:00:00 | 00:00:00 | 00:00:00 | |
| SP4MAZ | 2026-09-05 23:43:07 | 52.25601 | 21.36929 | 118° | 93km/h | 8711m | 5.1m/s | 0°C | 0% | 320.2hPa | 0V | 00:00:00 | 00:00:00 | 00:00:00 | |
| SP4MAZ | 2026-09-05 23:42:46 | 52.25841 | 21.36146 | 114° | 99km/h | 8603m | 5.8m/s | 0°C | 0% | 325.6hPa | 0V | 00:00:00 | 00:00:00 | 00:00:00 | |
| SP4MAZ | 2026-09-05 23:42:26 | 52.26076 | 21.35453 | 128° | 93km/h | 8494m | 4.6m/s | 0°C | 0% | 331.0hPa | 0V | 00:00:00 | 00:00:00 | 00:00:00 | |
| SP4MAZ | 2026-09-05 23:42:05 | 52.26319 | 21.34764 | 123° | 88km/h | 8371m | 6.5m/s | 0°C | 0% | 337.0hPa | 0V | 00:00:00 | 00:00:00 | 00:00:00 | |
| SP4MAZ | 2026-09-05 23:41:44 | 52.26566 | 21.34066 | 116° | 89km/h | 8244m | 4.0m/s | 0°C | 0% | 343.1hPa | 0V | 00:00:00 | 00:00:00 | 00:00:00 | |
| SP4MAZ | 2026-09-05 23:41:22 | 52.26827 | 21.33336 | 120° | 88km/h | 8127m | 5.0m/s | 0°C | 0% | 349.4hPa | 0V | 00:00:00 | 00:00:00 | 00:00:00 | |
| SP4MAZ | 2026-09-05 23:41:02 | 52.27064 | 21.32667 | 117° | 97km/h | 8024m | 5.9m/s | 0°C | 0% | 354.7hPa | 0V | 00:00:00 | 00:00:00 | 00:00:00 | |
| SP4MAZ | 2026-09-05 23:40:42 | 52.27260 | 21.31984 | 109° | 97km/h | 7925m | 5.7m/s | 0°C | 0% | 360.0hPa | 0V | 00:00:00 | 00:00:00 | 00:00:00 | |
| SP4MAZ | 2026-09-05 23:40:22 | 52.27458 | 21.31298 | 116° | 104km/h | 7803m | 4.8m/s | 0°C | 0% | 366.2hPa | 0V | 00:00:00 | 00:00:00 | 00:00:00 | |
| SP4MAZ | 2026-09-05 23:40:00 | 52.27721 | 21.30557 | 126° | 99km/h | 7671m | 6.9m/s | 0°C | 0% | 373.4hPa | 0V | 00:00:00 | 00:00:00 | 00:00:00 | |
| SP4MAZ | 2026-09-05 23:39:40 | 52.27955 | 21.29857 | 119° | 91km/h | 7556m | 3.8m/s | 0°C | 0% | 379.8hPa | 0V | 00:00:00 | 00:00:00 | 00:00:00 | |
| SP4MAZ | 2026-09-05 23:39:22 | 52.28164 | 21.29227 | 119° | 93km/h | 7440m | 7.2m/s | 0°C | 0% | 386.4hPa | 0V | 00:00:00 | 00:00:00 | 00:00:00 | |
| SP4MAZ | 2026-09-05 23:38:57 | 52.28419 | 21.28549 | 116° | 84km/h | 7305m | 6.3m/s | 0°C | 0% | 393.8hPa | 0V | 00:00:00 | 00:00:00 | 00:00:00 | |
| SP4MAZ | 2026-09-05 23:38:36 | 52.28635 | 21.27899 | 124° | 86km/h | 7191m | 3.9m/s | 0°C | 0% | 400.3hPa | 0V | 00:00:00 | 00:00:00 | 00:00:00 | |
| SP4MAZ | 2026-09-05 23:38:14 | 52.28873 | 21.27274 | 124° | 71km/h | 7073m | 8.3m/s | 0°C | 0% | 407.1hPa | 0V | 00:00:00 | 00:00:00 | 00:00:00 | |
| SP4MAZ | 2026-09-05 23:37:52 | 52.29079 | 21.26629 | 117° | 64km/h | 6945m | 6.3m/s | 0°C | 0% | 414.4hPa | 0V | 00:00:00 | 00:00:00 | 00:00:00 | |
| SP4MAZ | 2026-09-05 23:37:31 | 52.29299 | 21.26092 | 131° | 73km/h | 6830m | 4.9m/s | 0°C | 0% | 0hPa | 0V | 00:00:00 | 00:00:00 | 00:00:00 | |
| SP4MAZ | 2026-09-05 23:37:11 | 52.29507 | 21.25542 | 119° | 88km/h | 6721m | 6.2m/s | 0°C | 0% | 0hPa | 0V | 00:00:00 | 00:00:00 | 00:00:00 | |
| SP4MAZ | 2026-09-05 23:36:50 | 52.29711 | 21.24981 | 115° | 69km/h | 6602m | 6.1m/s | 0°C | 0% | 0hPa | 0V | 00:00:00 | 00:00:00 | 00:00:00 | |
| SP4MAZ | 2026-09-05 23:36:28 | 52.29925 | 21.24364 | 116° | 89km/h | 6482m | 4.8m/s | 0°C | 0% | 0hPa | 0V | 00:00:00 | 00:00:00 | 00:00:00 | |
| SP4MAZ | 2026-09-05 23:36:07 | 52.30161 | 21.23795 | 133° | 78km/h | 6365m | 7.4m/s | 0°C | 0% | 0hPa | 0V | 00:00:00 | 00:00:00 | 00:00:00 | |
| SP4MAZ | 2026-09-05 23:35:46 | 52.30418 | 21.23284 | 132° | 84km/h | 6258m | 7.0m/s | 0°C | 0% | 0hPa | 0V | 00:00:00 | 00:00:00 | 00:00:00 | |
| SP4MAZ | 2026-09-05 23:35:25 | 52.30634 | 21.22740 | 127° | 69km/h | 6144m | 7.5m/s | 0°C | 0% | 0hPa | 0V | 00:00:00 | 00:00:00 | 00:00:00 | |
| SP4MAZ | 2026-09-05 23:35:06 | 52.30860 | 21.22281 | 130° | 73km/h | 6038m | 4.3m/s | 0°C | 0% | 0hPa | 0V | 00:00:00 | 00:00:00 | 00:00:00 | |
| SP4MAZ | 2026-09-05 23:34:43 | 52.31099 | 21.21847 | 133° | 66km/h | 5924m | 6.5m/s | 0°C | 0% | 0hPa | 0V | 00:00:00 | 00:00:00 | 00:00:00 | |
| SP4MAZ | 2026-09-05 23:34:23 | 52.31318 | 21.21366 | 131° | 57km/h | 5802m | 3.1m/s | 0°C | 0% | 0hPa | 0V | 00:00:00 | 00:00:00 | 00:00:00 | |
| SP4MAZ | 2026-09-05 23:34:01 | 52.31556 | 21.20864 | 125° | 78km/h | 5685m | 3.8m/s | 0°C | 0% | 0hPa | 0V | 00:00:00 | 00:00:00 | 00:00:00 | |
| SP4MAZ | 2026-09-05 23:33:40 | 52.31760 | 21.20351 | 118° | 66km/h | 5580m | 5.6m/s | 0°C | 0% | 0hPa | 0V | 00:00:00 | 00:00:00 | 00:00:00 | |
| SP4MAZ | 2026-09-05 23:33:16 | 52.32013 | 21.19790 | 135° | 80km/h | 5437m | 4.7m/s | 0°C | 0% | 0hPa | 0V | 00:00:00 | 00:00:00 | 00:00:00 | |
| SP4MAZ | 2026-09-05 23:32:55 | 52.32224 | 21.19223 | 120° | 88km/h | 5320m | 7.8m/s | 0°C | 0% | 0hPa | 0V | 00:00:00 | 00:00:00 | 00:00:00 | |
| SP4MAZ | 2026-09-05 23:32:34 | 52.32449 | 21.18699 | 133° | 69km/h | 5208m | 7.2m/s | 0°C | 0% | 0hPa | 0V | 00:00:00 | 00:00:00 | 00:00:00 | |
| SP4MAZ | 2026-09-05 23:32:14 | 52.32646 | 21.18223 | 126° | 80km/h | 5098m | 6.1m/s | 0°C | 0% | 0hPa | 0V | 00:00:00 | 00:00:00 | 00:00:00 | |
| SP4MAZ | 2026-09-05 23:31:53 | 52.32866 | 21.17693 | 120° | 69km/h | 4980m | 6.0m/s | 0°C | 0% | 0hPa | 0V | 00:00:00 | 00:00:00 | 00:00:00 | |
| SP4MAZ | 2026-09-05 23:31:32 | 52.33089 | 21.17183 | 123° | 86km/h | 4876m | 5.6m/s | 0°C | 0% | 0hPa | 0V | 00:00:00 | 00:00:00 | 00:00:00 | |
| SP4MAZ | 2026-09-05 23:31:10 | 52.33298 | 21.16664 | 131° | 66km/h | 4764m | 3.1m/s | 0°C | 0% | 0hPa | 0V | 00:00:00 | 00:00:00 | 00:00:00 | |
| SP4MAZ | 2026-09-05 23:30:49 | 52.33508 | 21.16156 | 124° | 71km/h | 4651m | 5.7m/s | 0°C | 0% | 0hPa | 0V | 00:00:00 | 00:00:00 | 00:00:00 | |
| SP4MAZ | 2026-09-05 23:30:29 | 52.33725 | 21.15684 | 127° | 71km/h | 4546m | 3.9m/s | 0°C | 0% | 0hPa | 0V | 00:00:00 | 00:00:00 | 00:00:00 | |
| SP4MAZ | 2026-09-05 23:30:08 | 52.33985 | 21.15188 | 121° | 80km/h | 4437m | 5.6m/s | 0°C | 0% | 0hPa | 0V | 00:00:00 | 00:00:00 | 00:00:00 | |
| SP4MAZ | 2026-09-05 23:29:47 | 52.34219 | 21.14642 | 127° | 82km/h | 4328m | 3.7m/s | 0°C | 0% | 0hPa | 0V | 00:00:00 | 00:00:00 | 00:00:00 | |
| SP4MAZ | 2026-09-05 23:29:26 | 52.34424 | 21.14066 | 115° | 80km/h | 4218m | 4.7m/s | 0°C | 0% | 0hPa | 0V | 00:00:00 | 00:00:00 | 00:00:00 | |
| SP4MAZ | 2026-09-05 23:29:06 | 52.34620 | 21.13519 | 133° | 69km/h | 4112m | 5.7m/s | 0°C | 0% | 0hPa | 0V | 00:00:00 | 00:00:00 | 00:00:00 | |
| SP4MAZ | 2026-09-05 23:28:44 | 52.34830 | 21.13001 | 127° | 71km/h | 3997m | 4.9m/s | 0°C | 0% | 0hPa | 0V | 00:00:00 | 00:00:00 | 00:00:00 | |
| SP4MAZ | 2026-09-05 23:28:23 | 52.34996 | 21.12418 | 112° | 84km/h | 3888m | 4.8m/s | 0°C | 0% | 0hPa | 0V | 00:00:00 | 00:00:00 | 00:00:00 | |
| SP4MAZ | 2026-09-05 23:28:02 | 52.35164 | 21.11832 | 107° | 60km/h | 3775m | 6.1m/s | 0°C | 0% | 0hPa | 0V | 00:00:00 | 00:00:00 | 00:00:00 | |
| SP4MAZ | 2026-09-05 23:27:41 | 52.35327 | 21.11304 | 129° | 71km/h | 3673m | 5.2m/s | 0°C | 0% | 0hPa | 0V | 00:00:00 | 00:00:00 | 00:00:00 | |
| SP4MAZ | 2026-09-05 23:27:21 | 52.35531 | 21.10791 | 119° | 62km/h | 3556m | 4.0m/s | 0°C | 0% | 0hPa | 0V | 00:00:00 | 00:00:00 | 00:00:00 | |
| SP4MAZ | 2026-09-05 23:26:56 | 52.35732 | 21.10182 | 111° | 73km/h | 3428m | 3.9m/s | 0°C | 0% | 0hPa | 0V | 00:00:00 | 00:00:00 | 00:00:00 | |
| SP4MAZ | 2026-09-05 23:26:35 | 52.35922 | 21.09600 | 116° | 86km/h | 3323m | 2.9m/s | 0°C | 0% | 0hPa | 0V | 00:00:00 | 00:00:00 | 00:00:00 | |
| SP4MAZ | 2026-09-05 23:26:14 | 52.36093 | 21.09044 | 116° | 64km/h | 3219m | 6.3m/s | 0°C | 0% | 0hPa | 0V | 00:00:00 | 00:00:00 | 00:00:00 | |
| SP4MAZ | 2026-09-05 23:25:52 | 52.36306 | 21.08434 | 116° | 80km/h | 3103m | 5.5m/s | 0°C | 0% | 0hPa | 0V | 00:00:00 | 00:00:00 | 00:00:00 | |
| SP4MAZ | 2026-09-05 23:25:30 | 52.36493 | 21.07865 | 119° | 78km/h | 2989m | 3.7m/s | 0°C | 0% | 0hPa | 0V | 00:00:00 | 00:00:00 | 00:00:00 | |
| SP4MAZ | 2026-09-05 23:25:08 | 52.36699 | 21.07253 | 112° | 80km/h | 2869m | 4.1m/s | 0°C | 0% | 0hPa | 0V | 00:00:00 | 00:00:00 | 00:00:00 | |
| SP4MAZ | 2026-09-05 23:24:46 | 52.36886 | 21.06675 | 113° | 77km/h | 2748m | 6.3m/s | 0°C | 0% | 0hPa | 0V | 00:00:00 | 00:00:00 | 00:00:00 |